THT8 NTAA-KLAX
Flight info
| Callsign | THT8 |
|---|---|
| Flight time | 7h 36m |
| Altitude | 37000 |
| Route | IKELO4E IKELO DCT ORARE G575 RUTAK/N0491F390 G575 APIDD/N0483F410 G575 FICKY GOATZ2 |
| Aircraft | B789/H-SDE1E2E3FGHIJ2J3J4J5M1RWXY/LB1D1 |
Departure
| Time | 2026-05-08 12:43 |
|---|---|
| Airport | Fa'a'ā International Airport (NTAA) |
Arrival
| Time | 2026-05-08 20:20 |
|---|---|
| Airport | Los Angeles International Airport (KLAX) |
| Time | Latitude | Longitude | Altitude | Speed | Heading |
|---|---|---|---|---|---|
| 2026-05-08 12:07 | -17.55765 | -149.60910 | 21 ft | 0 kts | 144° |
| 2026-05-08 12:30 | -17.55764 | -149.60911 | 21 ft | 2 kts | 144° |
| 2026-05-08 12:31 | -17.55744 | -149.60927 | 26 ft | 4 kts | 143° |
| 2026-05-08 12:31 | -17.55725 | -149.60941 | 26 ft | 4 kts | 162° |
| 2026-05-08 12:31 | -17.55703 | -149.60939 | 23 ft | 4 kts | 223° |
| 2026-05-08 12:31 | -17.55687 | -149.60919 | 25 ft | 2 kts | 231° |
| 2026-05-08 12:32 | -17.55684 | -149.60915 | 24 ft | 0 kts | 231° |
| 2026-05-08 12:35 | -17.55687 | -149.60919 | 25 ft | 2 kts | 231° |
| 2026-05-08 12:36 | -17.55700 | -149.60936 | 24 ft | 4 kts | 231° |
| 2026-05-08 12:36 | -17.55720 | -149.60965 | 22 ft | 6 kts | 234° |
| 2026-05-08 12:36 | -17.55730 | -149.60979 | 23 ft | 1 kts | 235° |
| 2026-05-08 12:36 | -17.55744 | -149.61001 | 21 ft | 6 kts | 234° |
| 2026-05-08 12:37 | -17.55755 | -149.61017 | 22 ft | 0 kts | 234° |
| 2026-05-08 12:37 | -17.55759 | -149.61022 | 21 ft | 2 kts | 234° |
| 2026-05-08 12:37 | -17.55771 | -149.61041 | 40 ft | 4 kts | 241° |
| 2026-05-08 12:37 | -17.55766 | -149.61069 | 20 ft | 4 kts | 308° |
| 2026-05-08 12:38 | -17.55762 | -149.61073 | 23 ft | 1 kts | 321° |
| 2026-05-08 12:38 | -17.55749 | -149.61084 | 20 ft | 5 kts | 321° |
| 2026-05-08 12:38 | -17.55700 | -149.61125 | 18 ft | 13 kts | 314° |
| 2026-05-08 12:38 | -17.55702 | -149.61214 | 18 ft | 14 kts | 240° |
| 2026-05-08 12:39 | -17.55766 | -149.61308 | 17 ft | 18 kts | 234° |
| 2026-05-08 12:39 | -17.55844 | -149.61421 | 18 ft | 20 kts | 233° |
| 2026-05-08 12:39 | -17.55930 | -149.61545 | 19 ft | 22 kts | 234° |
| 2026-05-08 12:39 | -17.56025 | -149.61685 | 19 ft | 25 kts | 234° |
| 2026-05-08 12:40 | -17.56126 | -149.61831 | 22 ft | 24 kts | 234° |
| 2026-05-08 12:40 | -17.56214 | -149.61962 | 20 ft | 16 kts | 245° |
| 2026-05-08 12:40 | -17.56231 | -149.62035 | 22 ft | 3 kts | 222° |
| 2026-05-08 12:40 | -17.56238 | -149.62037 | 21 ft | 1 kts | 189° |
| 2026-05-08 12:41 | -17.56251 | -149.62031 | 20 ft | 3 kts | 148° |
| 2026-05-08 12:41 | -17.56256 | -149.62009 | 20 ft | 5 kts | 84° |
| 2026-05-08 12:41 | -17.56228 | -149.61976 | 20 ft | 10 kts | 43° |
| 2026-05-08 12:41 | -17.56200 | -149.61940 | 21 ft | 0 kts | 55° |
| 2026-05-08 12:42 | -17.56196 | -149.61933 | 20 ft | 6 kts | 55° |
| 2026-05-08 12:42 | -17.56074 | -149.61753 | 20 ft | 58 kts | 54° |
| 2026-05-08 12:42 | -17.55726 | -149.61249 | 18 ft | 112 kts | 54° |
| 2026-05-08 12:42 | -17.55178 | -149.60454 | 18 ft | 157 kts | 54° |
| 2026-05-08 12:43 | -17.54475 | -149.59460 | 317 ft | 168 kts | 50° |
| 2026-05-08 12:43 | -17.53678 | -149.58550 | 821 ft | 183 kts | 45° |
| 2026-05-08 12:43 | -17.52404 | -149.58275 | 1488 ft | 195 kts | 353° |
| 2026-05-08 12:43 | -17.51031 | -149.58566 | 1921 ft | 211 kts | 355° |
| 2026-05-08 12:44 | -17.49515 | -149.58738 | 2269 ft | 226 kts | 0° |
| 2026-05-08 12:44 | -17.47914 | -149.58908 | 2743 ft | 237 kts | 359° |
| 2026-05-08 12:44 | -17.46245 | -149.59111 | 3279 ft | 245 kts | 359° |
| 2026-05-08 12:44 | -17.44530 | -149.59322 | 3848 ft | 250 kts | 359° |
| 2026-05-08 12:45 | -17.42830 | -149.59530 | 4807 ft | 233 kts | 359° |
| 2026-05-08 12:45 | -17.41237 | -149.59725 | 5593 ft | 234 kts | 359° |
| 2026-05-08 12:45 | -17.39621 | -149.59912 | 6162 ft | 238 kts | 359° |
| 2026-05-08 12:45 | -17.37960 | -149.60107 | 6792 ft | 240 kts | 358° |
| 2026-05-08 12:46 | -17.36301 | -149.60310 | 7398 ft | 241 kts | 357° |
| 2026-05-08 12:46 | -17.34619 | -149.60512 | 7985 ft | 244 kts | 356° |
| 2026-05-08 12:46 | -17.32920 | -149.60715 | 8539 ft | 248 kts | 356° |
| 2026-05-08 12:46 | -17.31202 | -149.60919 | 9155 ft | 249 kts | 356° |
| 2026-05-08 12:47 | -17.29460 | -149.61108 | 9663 ft | 254 kts | 0° |
| 2026-05-08 12:47 | -17.27714 | -149.60677 | 9724 ft | 270 kts | 35° |
| 2026-05-08 12:47 | -17.26151 | -149.59450 | 9771 ft | 294 kts | 43° |
| 2026-05-08 12:47 | -17.24546 | -149.58029 | 10125 ft | 309 kts | 42° |
| 2026-05-08 12:48 | -17.22884 | -149.56607 | 10940 ft | 312 kts | 41° |
| 2026-05-08 12:48 | -17.21117 | -149.55131 | 11115 ft | 338 kts | 41° |
| 2026-05-08 12:48 | -17.19205 | -149.53536 | 11206 ft | 365 kts | 41° |
| 2026-05-08 12:48 | -17.17197 | -149.51850 | 11774 ft | 371 kts | 41° |
| 2026-05-08 12:49 | -17.15169 | -149.50148 | 12442 ft | 377 kts | 42° |
| 2026-05-08 12:49 | -17.13108 | -149.48413 | 13118 ft | 382 kts | 41° |
| 2026-05-08 12:49 | -17.11025 | -149.46665 | 13813 ft | 386 kts | 41° |
| 2026-05-08 12:49 | -17.08929 | -149.44909 | 14393 ft | 391 kts | 41° |
| 2026-05-08 12:50 | -17.06797 | -149.43120 | 14990 ft | 396 kts | 41° |
| 2026-05-08 12:50 | -17.04646 | -149.41313 | 15655 ft | 398 kts | 40° |
| 2026-05-08 12:50 | -17.02473 | -149.39493 | 16262 ft | 402 kts | 40° |
| 2026-05-08 12:50 | -17.00283 | -149.37658 | 16841 ft | 406 kts | 41° |
| 2026-05-08 12:51 | -16.98073 | -149.35806 | 17442 ft | 409 kts | 40° |
| 2026-05-08 12:51 | -16.93600 | -149.32061 | 18510 ft | 416 kts | 40° |
| 2026-05-08 12:51 | -16.91333 | -149.30162 | 19020 ft | 418 kts | 40° |
| 2026-05-08 12:52 | -16.89058 | -149.28258 | 19512 ft | 421 kts | 40° |
| 2026-05-08 12:52 | -16.84451 | -149.24405 | 20461 ft | 427 kts | 39° |
| 2026-05-08 12:52 | -16.82131 | -149.22466 | 20916 ft | 429 kts | 39° |
| 2026-05-08 12:53 | -16.79794 | -149.20493 | 21329 ft | 433 kts | 41° |
| 2026-05-08 12:53 | -16.77569 | -149.18420 | 21719 ft | 436 kts | 41° |
| 2026-05-08 12:53 | -16.75250 | -149.16375 | 22169 ft | 438 kts | 40° |
| 2026-05-08 12:53 | -16.72917 | -149.14312 | 22539 ft | 442 kts | 40° |
| 2026-05-08 12:54 | -16.70593 | -149.12197 | 22964 ft | 444 kts | 41° |
| 2026-05-08 12:54 | -16.68261 | -149.10069 | 23344 ft | 447 kts | 40° |
| 2026-05-08 12:54 | -16.65897 | -149.07943 | 23679 ft | 450 kts | 40° |
| 2026-05-08 12:54 | -16.63514 | -149.05809 | 24020 ft | 452 kts | 40° |
| 2026-05-08 12:55 | -16.61131 | -149.03661 | 24345 ft | 454 kts | 40° |
| 2026-05-08 12:55 | -16.58737 | -149.01497 | 24624 ft | 457 kts | 40° |
| 2026-05-08 12:55 | -16.56322 | -148.99323 | 24941 ft | 459 kts | 40° |
| 2026-05-08 12:55 | -16.53898 | -148.97144 | 25235 ft | 462 kts | 40° |
| 2026-05-08 12:56 | -16.51464 | -148.94956 | 25581 ft | 463 kts | 40° |
| 2026-05-08 12:56 | -16.49025 | -148.92759 | 25902 ft | 464 kts | 40° |
| 2026-05-08 12:56 | -16.46605 | -148.90582 | 26175 ft | 467 kts | 40° |
| 2026-05-08 12:56 | -16.44136 | -148.88364 | 26454 ft | 469 kts | 40° |
| 2026-05-08 12:57 | -16.41659 | -148.86139 | 26799 ft | 470 kts | 40° |
| 2026-05-08 12:57 | -16.39173 | -148.83905 | 27049 ft | 474 kts | 40° |
| 2026-05-08 12:57 | -16.36665 | -148.81653 | 27354 ft | 476 kts | 40° |
| 2026-05-08 12:57 | -16.34156 | -148.79400 | 27661 ft | 477 kts | 40° |
| 2026-05-08 12:58 | -16.31632 | -148.77136 | 27871 ft | 481 kts | 40° |
| 2026-05-08 12:58 | -16.29093 | -148.74859 | 28200 ft | 482 kts | 40° |
| 2026-05-08 12:58 | -16.26551 | -148.72579 | 28466 ft | 484 kts | 39° |
| 2026-05-08 12:58 | -16.23987 | -148.70282 | 28702 ft | 487 kts | 39° |
| 2026-05-08 12:59 | -16.21412 | -148.67974 | 29033 ft | 488 kts | 39° |
| 2026-05-08 12:59 | -16.18833 | -148.65664 | 29227 ft | 491 kts | 39° |
| 2026-05-08 12:59 | -16.16268 | -148.63367 | 29495 ft | 493 kts | 40° |
| 2026-05-08 12:59 | -16.13669 | -148.61041 | 29769 ft | 494 kts | 40° |
| 2026-05-08 13:00 | -16.11048 | -148.58696 | 29950 ft | 498 kts | 40° |
| 2026-05-08 13:00 | -16.08420 | -148.56346 | 30234 ft | 498 kts | 40° |
| 2026-05-08 13:00 | -16.05784 | -148.53989 | 30430 ft | 500 kts | 39° |
| 2026-05-08 13:00 | -16.03139 | -148.51624 | 30622 ft | 502 kts | 39° |
| 2026-05-08 13:01 | -16.00489 | -148.49257 | 30877 ft | 503 kts | 39° |
| 2026-05-08 13:01 | -15.97830 | -148.46882 | 31007 ft | 506 kts | 39° |
| 2026-05-08 13:01 | -15.95162 | -148.44501 | 31249 ft | 506 kts | 40° |
| 2026-05-08 13:01 | -15.92484 | -148.42110 | 31436 ft | 508 kts | 39° |
| 2026-05-08 13:02 | -15.89736 | -148.39781 | 31582 ft | 509 kts | 34° |
| 2026-05-08 13:02 | -15.86876 | -148.37599 | 31800 ft | 509 kts | 35° |
| 2026-05-08 13:02 | -15.84023 | -148.35399 | 31915 ft | 512 kts | 35° |
| 2026-05-08 13:02 | -15.81160 | -148.33191 | 32132 ft | 512 kts | 36° |
| 2026-05-08 13:03 | -15.78335 | -148.31022 | 32314 ft | 514 kts | 35° |
| 2026-05-08 13:03 | -15.75454 | -148.28814 | 32479 ft | 515 kts | 35° |
| 2026-05-08 13:03 | -15.72577 | -148.26605 | 32802 ft | 513 kts | 36° |
| 2026-05-08 13:03 | -15.69715 | -148.24404 | 33032 ft | 513 kts | 35° |
| 2026-05-08 13:04 | -15.66845 | -148.22202 | 33267 ft | 513 kts | 35° |
| 2026-05-08 13:04 | -15.63974 | -148.20002 | 33580 ft | 511 kts | 35° |
| 2026-05-08 13:04 | -15.61112 | -148.17808 | 33787 ft | 511 kts | 35° |
| 2026-05-08 13:04 | -15.58249 | -148.15614 | 34061 ft | 510 kts | 35° |
| 2026-05-08 13:05 | -15.55396 | -148.13427 | 34282 ft | 510 kts | 35° |
| 2026-05-08 13:05 | -15.52578 | -148.11269 | 34454 ft | 510 kts | 35° |
| 2026-05-08 13:05 | -15.49726 | -148.09085 | 34713 ft | 508 kts | 35° |
| 2026-05-08 13:05 | -15.46874 | -148.06902 | 34880 ft | 509 kts | 35° |
| 2026-05-08 13:06 | -15.44024 | -148.04721 | 35093 ft | 509 kts | 36° |
| 2026-05-08 13:06 | -15.41180 | -148.02546 | 35316 ft | 508 kts | 36° |
| 2026-05-08 13:06 | -15.38331 | -148.00369 | 35463 ft | 509 kts | 36° |
| 2026-05-08 13:06 | -15.35484 | -147.98193 | 35718 ft | 507 kts | 36° |
| 2026-05-08 13:07 | -15.32643 | -147.96021 | 35898 ft | 508 kts | 36° |
| 2026-05-08 13:07 | -15.29796 | -147.93847 | 36080 ft | 508 kts | 36° |
| 2026-05-08 13:07 | -15.26956 | -147.91679 | 36310 ft | 506 kts | 36° |
| 2026-05-08 13:07 | -15.24117 | -147.89512 | 36417 ft | 508 kts | 36° |
| 2026-05-08 13:08 | -15.21276 | -147.87345 | 36648 ft | 507 kts | 36° |
| 2026-05-08 13:08 | -15.18438 | -147.85180 | 36848 ft | 506 kts | 36° |
| 2026-05-08 13:08 | -15.15599 | -147.83015 | 36974 ft | 507 kts | 36° |
| 2026-05-08 13:08 | -15.12782 | -147.80868 | 36965 ft | 510 kts | 36° |
| 2026-05-08 13:09 | -15.07067 | -147.76514 | 36965 ft | 508 kts | 36° |
| 2026-05-08 13:09 | -15.01396 | -147.72197 | 36962 ft | 506 kts | 36° |
| 2026-05-08 13:10 | -14.95747 | -147.67908 | 36965 ft | 505 kts | 33° |
| 2026-05-08 13:10 | -14.89549 | -147.64392 | 36980 ft | 505 kts | 26° |
| 2026-05-08 13:11 | -14.83339 | -147.61068 | 36974 ft | 506 kts | 27° |
| 2026-05-08 13:11 | -14.77105 | -147.57700 | 36975 ft | 505 kts | 26° |
| 2026-05-08 13:12 | -14.70869 | -147.54356 | 36973 ft | 505 kts | 26° |
| 2026-05-08 13:12 | -14.65681 | -147.51562 | 36978 ft | 506 kts | 27° |
| 2026-05-08 13:13 | -14.59431 | -147.48208 | 36969 ft | 506 kts | 26° |
| 2026-05-08 13:13 | -14.53192 | -147.44858 | 36972 ft | 505 kts | 26° |
| 2026-05-08 13:14 | -14.46942 | -147.41507 | 36969 ft | 505 kts | 26° |
| 2026-05-08 13:14 | -14.40706 | -147.38163 | 36969 ft | 506 kts | 26° |
| 2026-05-08 13:15 | -14.34463 | -147.34819 | 36972 ft | 505 kts | 26° |
| 2026-05-08 13:15 | -14.28210 | -147.31471 | 36973 ft | 505 kts | 26° |
| 2026-05-08 13:16 | -14.21961 | -147.28128 | 36972 ft | 506 kts | 26° |
| 2026-05-08 13:16 | -14.15758 | -147.24812 | 36970 ft | 506 kts | 26° |
| 2026-05-08 13:17 | -14.09501 | -147.21468 | 36969 ft | 506 kts | 26° |
| 2026-05-08 13:17 | -14.03241 | -147.18125 | 36971 ft | 506 kts | 26° |
| 2026-05-08 13:18 | -13.96997 | -147.14792 | 36971 ft | 506 kts | 26° |
| 2026-05-08 13:18 | -13.90742 | -147.11456 | 36971 ft | 506 kts | 26° |
| 2026-05-08 13:19 | -13.84496 | -147.08127 | 36965 ft | 505 kts | 26° |
| 2026-05-08 13:19 | -13.78300 | -147.04826 | 36963 ft | 505 kts | 26° |
| 2026-05-08 13:20 | -13.72051 | -147.01499 | 36966 ft | 506 kts | 27° |
| 2026-05-08 13:20 | -13.65803 | -146.98175 | 36963 ft | 506 kts | 26° |
| 2026-05-08 13:21 | -13.59548 | -146.94848 | 36959 ft | 506 kts | 26° |
| 2026-05-08 13:21 | -13.53282 | -146.91519 | 36963 ft | 506 kts | 26° |
| 2026-05-08 13:22 | -13.47032 | -146.88199 | 36959 ft | 506 kts | 27° |
| 2026-05-08 13:22 | -13.40777 | -146.84879 | 36964 ft | 507 kts | 26° |
| 2026-05-08 13:23 | -13.34514 | -146.81556 | 36963 ft | 505 kts | 26° |
| 2026-05-08 13:23 | -13.28295 | -146.78259 | 36961 ft | 505 kts | 26° |
| 2026-05-08 13:24 | -13.22006 | -146.74927 | 36958 ft | 506 kts | 26° |
| 2026-05-08 13:24 | -13.15757 | -146.71617 | 36955 ft | 506 kts | 26° |
| 2026-05-08 13:25 | -13.09493 | -146.68302 | 36957 ft | 506 kts | 26° |
| 2026-05-08 13:25 | -13.03261 | -146.65005 | 36956 ft | 506 kts | 26° |
| 2026-05-08 13:26 | -12.96993 | -146.61692 | 36960 ft | 507 kts | 27° |
| 2026-05-08 13:26 | -12.90733 | -146.58384 | 36958 ft | 507 kts | 26° |
| 2026-05-08 13:27 | -12.84472 | -146.55078 | 36952 ft | 505 kts | 26° |
| 2026-05-08 13:27 | -12.78208 | -146.51772 | 36955 ft | 506 kts | 27° |
| 2026-05-08 13:28 | -12.71945 | -146.48469 | 36954 ft | 506 kts | 27° |
| 2026-05-08 13:28 | -12.65684 | -146.45168 | 36953 ft | 506 kts | 26° |
| 2026-05-08 13:29 | -12.59459 | -146.41888 | 36957 ft | 506 kts | 26° |
| 2026-05-08 13:29 | -12.53188 | -146.38587 | 36960 ft | 506 kts | 26° |
| 2026-05-08 13:30 | -12.46920 | -146.35288 | 36952 ft | 507 kts | 27° |
| 2026-05-08 13:30 | -12.40645 | -146.31987 | 36953 ft | 507 kts | 26° |
| 2026-05-08 13:31 | -12.34374 | -146.28690 | 36954 ft | 507 kts | 26° |
| 2026-05-08 13:31 | -12.28103 | -146.25395 | 36953 ft | 506 kts | 26° |
| 2026-05-08 13:32 | -12.21832 | -146.22102 | 36952 ft | 505 kts | 26° |
| 2026-05-08 13:32 | -12.15572 | -146.18816 | 36957 ft | 506 kts | 26° |
| 2026-05-08 13:33 | -12.09350 | -146.15552 | 36953 ft | 507 kts | 26° |
| 2026-05-08 13:33 | -12.03082 | -146.12266 | 36948 ft | 506 kts | 26° |
| 2026-05-08 13:34 | -11.96814 | -146.08981 | 36950 ft | 505 kts | 26° |
| 2026-05-08 13:34 | -11.90547 | -146.05699 | 36952 ft | 505 kts | 26° |
| 2026-05-08 13:35 | -11.84280 | -146.02418 | 36952 ft | 507 kts | 26° |
| 2026-05-08 13:35 | -11.78008 | -145.99136 | 36951 ft | 507 kts | 26° |
| 2026-05-08 13:36 | -11.71731 | -145.95854 | 36950 ft | 506 kts | 26° |
| 2026-05-08 13:36 | -11.65460 | -145.92576 | 36951 ft | 506 kts | 26° |
| 2026-05-08 13:37 | -11.59194 | -145.89303 | 36951 ft | 506 kts | 26° |
| 2026-05-08 13:37 | -11.52918 | -145.86026 | 36952 ft | 507 kts | 26° |
| 2026-05-08 13:38 | -11.46676 | -145.82768 | 36945 ft | 507 kts | 26° |
| 2026-05-08 13:38 | -11.40400 | -145.79494 | 36947 ft | 507 kts | 26° |
| 2026-05-08 13:39 | -11.34112 | -145.76216 | 36949 ft | 506 kts | 26° |
| 2026-05-08 13:39 | -11.27849 | -145.72953 | 36949 ft | 505 kts | 26° |
| 2026-05-08 13:40 | -11.21585 | -145.69690 | 36946 ft | 505 kts | 26° |
| 2026-05-08 13:40 | -11.15321 | -145.66429 | 36945 ft | 506 kts | 26° |
| 2026-05-08 13:41 | -11.09040 | -145.63161 | 36949 ft | 506 kts | 26° |
| 2026-05-08 13:41 | -11.02807 | -145.59919 | 36949 ft | 506 kts | 26° |
| 2026-05-08 13:42 | -10.96528 | -145.56655 | 36947 ft | 506 kts | 26° |
| 2026-05-08 13:42 | -10.90249 | -145.53393 | 36946 ft | 506 kts | 26° |
| 2026-05-08 13:43 | -10.83968 | -145.50131 | 36949 ft | 507 kts | 26° |
| 2026-05-08 13:43 | -10.77694 | -145.46874 | 36947 ft | 506 kts | 26° |
| 2026-05-08 13:44 | -10.71421 | -145.43619 | 36945 ft | 506 kts | 26° |
| 2026-05-08 13:44 | -10.65182 | -145.40383 | 36943 ft | 506 kts | 26° |
| 2026-05-08 13:45 | -10.58898 | -145.37126 | 36940 ft | 506 kts | 26° |
| 2026-05-08 13:45 | -10.52615 | -145.33871 | 36939 ft | 507 kts | 26° |
| 2026-05-08 13:46 | -10.46327 | -145.30614 | 36941 ft | 507 kts | 26° |
| 2026-05-08 13:46 | -10.40031 | -145.27355 | 36938 ft | 507 kts | 26° |
| 2026-05-08 13:47 | -10.33738 | -145.24099 | 36936 ft | 507 kts | 26° |
| 2026-05-08 13:47 | -10.27489 | -145.20867 | 36938 ft | 506 kts | 26° |
| 2026-05-08 13:48 | -10.21203 | -145.17618 | 36939 ft | 507 kts | 26° |
| 2026-05-08 13:48 | -10.14916 | -145.14369 | 36936 ft | 507 kts | 26° |
| 2026-05-08 13:49 | -10.08625 | -145.11120 | 36938 ft | 507 kts | 26° |
| 2026-05-08 13:49 | -10.02331 | -145.07870 | 36936 ft | 507 kts | 26° |
| 2026-05-08 13:50 | -9.96046 | -145.04623 | 36936 ft | 507 kts | 26° |
| 2026-05-08 13:50 | -9.89807 | -145.01388 | 36933 ft | 507 kts | 26° |
| 2026-05-08 13:51 | -9.83515 | -144.98135 | 36933 ft | 507 kts | 26° |
| 2026-05-08 13:51 | -9.77224 | -144.94879 | 36932 ft | 507 kts | 26° |
| 2026-05-08 13:52 | -9.70937 | -144.91629 | 36937 ft | 507 kts | 26° |
| 2026-05-08 13:52 | -9.64637 | -144.88373 | 36933 ft | 508 kts | 26° |
| 2026-05-08 13:53 | -9.58345 | -144.85122 | 36931 ft | 508 kts | 26° |
| 2026-05-08 13:53 | -9.52075 | -144.81885 | 36932 ft | 508 kts | 26° |
| 2026-05-08 13:54 | -9.45772 | -144.78631 | 36933 ft | 508 kts | 26° |
| 2026-05-08 13:54 | -9.39468 | -144.75379 | 36928 ft | 508 kts | 26° |
| 2026-05-08 13:55 | -9.33207 | -144.72150 | 36928 ft | 508 kts | 26° |
| 2026-05-08 13:56 | -9.23756 | -144.67278 | 36927 ft | 508 kts | 26° |
| 2026-05-08 13:56 | -9.17443 | -144.64025 | 36927 ft | 509 kts | 26° |
| 2026-05-08 13:57 | -9.11135 | -144.60776 | 36927 ft | 508 kts | 26° |
| 2026-05-08 13:57 | -9.04828 | -144.57530 | 36928 ft | 508 kts | 26° |
| 2026-05-08 13:58 | -8.98563 | -144.54306 | 36921 ft | 508 kts | 26° |
| 2026-05-08 13:58 | -8.92253 | -144.51059 | 36921 ft | 508 kts | 26° |
| 2026-05-08 13:59 | -8.85946 | -144.47816 | 36921 ft | 509 kts | 26° |
| 2026-05-08 13:59 | -8.80702 | -144.45120 | 36919 ft | 508 kts | 25° |
| 2026-05-08 14:00 | -8.74392 | -144.41878 | 36920 ft | 508 kts | 26° |
| 2026-05-08 14:00 | -8.68079 | -144.38636 | 36918 ft | 508 kts | 26° |
| 2026-05-08 14:01 | -8.61768 | -144.35395 | 36919 ft | 509 kts | 26° |
| 2026-05-08 14:01 | -8.55452 | -144.32154 | 36919 ft | 509 kts | 26° |
| 2026-05-08 14:02 | -8.49132 | -144.28911 | 36918 ft | 509 kts | 26° |
| 2026-05-08 14:02 | -8.42809 | -144.25668 | 36919 ft | 509 kts | 26° |
| 2026-05-08 14:03 | -8.36497 | -144.22432 | 36921 ft | 509 kts | 26° |
| 2026-05-08 14:03 | -8.30175 | -144.19191 | 36918 ft | 509 kts | 26° |
| 2026-05-08 14:04 | -8.23850 | -144.15951 | 36915 ft | 510 kts | 25° |
| 2026-05-08 14:04 | -8.17561 | -144.12731 | 36918 ft | 510 kts | 25° |
| 2026-05-08 14:05 | -8.11238 | -144.09493 | 36914 ft | 509 kts | 25° |
| 2026-05-08 14:05 | -8.04902 | -144.06251 | 36916 ft | 509 kts | 25° |
| 2026-05-08 14:06 | -7.98572 | -144.03013 | 36913 ft | 510 kts | 25° |
| 2026-05-08 14:06 | -7.92280 | -143.99795 | 36908 ft | 510 kts | 25° |
| 2026-05-08 14:07 | -7.85948 | -143.96558 | 36905 ft | 509 kts | 25° |
| 2026-05-08 14:07 | -7.79630 | -143.93329 | 36905 ft | 509 kts | 25° |
| 2026-05-08 14:08 | -7.73311 | -143.90101 | 36907 ft | 509 kts | 25° |
| 2026-05-08 14:08 | -7.66986 | -143.86870 | 36909 ft | 510 kts | 25° |
| 2026-05-08 14:09 | -7.60659 | -143.83640 | 36901 ft | 510 kts | 25° |
| 2026-05-08 14:09 | -7.54336 | -143.80413 | 36901 ft | 509 kts | 25° |
| 2026-05-08 14:10 | -7.48052 | -143.77207 | 36901 ft | 509 kts | 25° |
| 2026-05-08 14:10 | -7.41737 | -143.73986 | 36903 ft | 509 kts | 25° |
| 2026-05-08 14:11 | -7.35424 | -143.70768 | 36902 ft | 508 kts | 25° |
| 2026-05-08 14:11 | -7.29103 | -143.67546 | 36903 ft | 511 kts | 25° |
| 2026-05-08 14:12 | -7.22738 | -143.64302 | 36908 ft | 512 kts | 25° |
| 2026-05-08 14:12 | -7.16372 | -143.61060 | 36904 ft | 512 kts | 25° |
| 2026-05-08 14:13 | -7.10053 | -143.57842 | 36903 ft | 511 kts | 25° |
| 2026-05-08 14:13 | -7.03704 | -143.54610 | 36902 ft | 511 kts | 25° |
| 2026-05-08 14:14 | -6.97357 | -143.51380 | 36903 ft | 512 kts | 25° |
| 2026-05-08 14:14 | -6.90985 | -143.48138 | 36907 ft | 514 kts | 25° |
| 2026-05-08 14:15 | -6.84599 | -143.44890 | 36912 ft | 514 kts | 25° |
| 2026-05-08 14:15 | -6.78224 | -143.41649 | 36910 ft | 512 kts | 25° |
| 2026-05-08 14:16 | -6.71871 | -143.38420 | 36905 ft | 511 kts | 25° |
| 2026-05-08 14:16 | -6.65526 | -143.35196 | 36892 ft | 510 kts | 25° |
| 2026-05-08 14:17 | -6.59184 | -143.31974 | 36896 ft | 512 kts | 25° |
| 2026-05-08 14:17 | -6.52810 | -143.28737 | 36903 ft | 514 kts | 25° |
| 2026-05-08 14:18 | -6.46461 | -143.25514 | 36908 ft | 514 kts | 25° |
| 2026-05-08 14:18 | -6.40090 | -143.22280 | 36904 ft | 512 kts | 25° |
| 2026-05-08 14:19 | -6.33720 | -143.19048 | 36906 ft | 512 kts | 25° |
| 2026-05-08 14:19 | -6.27361 | -143.15822 | 36903 ft | 511 kts | 25° |
| 2026-05-08 14:20 | -6.21007 | -143.12599 | 36899 ft | 511 kts | 25° |
| 2026-05-08 14:20 | -6.14663 | -143.09383 | 36901 ft | 511 kts | 25° |
| 2026-05-08 14:21 | -6.08316 | -143.06166 | 36904 ft | 510 kts | 25° |
| 2026-05-08 14:21 | -6.01983 | -143.02957 | 36897 ft | 510 kts | 25° |
| 2026-05-08 14:22 | -5.95679 | -142.99763 | 36894 ft | 509 kts | 25° |
| 2026-05-08 14:22 | -5.89356 | -142.96561 | 36893 ft | 508 kts | 25° |
| 2026-05-08 14:23 | -5.83019 | -142.93352 | 36892 ft | 508 kts | 25° |
| 2026-05-08 14:23 | -5.76734 | -142.90171 | 36895 ft | 510 kts | 25° |
| 2026-05-08 14:24 | -5.70393 | -142.86962 | 36895 ft | 511 kts | 25° |
| 2026-05-08 14:24 | -5.64023 | -142.83739 | 36903 ft | 512 kts | 25° |
| 2026-05-08 14:25 | -5.57663 | -142.80522 | 36904 ft | 511 kts | 25° |
| 2026-05-08 14:25 | -5.51313 | -142.77311 | 36903 ft | 510 kts | 25° |
| 2026-05-08 14:26 | -5.45014 | -142.74126 | 36902 ft | 509 kts | 25° |
| 2026-05-08 14:26 | -5.38699 | -142.70934 | 36901 ft | 507 kts | 25° |
| 2026-05-08 14:27 | -5.32398 | -142.67750 | 36901 ft | 507 kts | 25° |
| 2026-05-08 14:27 | -5.26081 | -142.64559 | 36903 ft | 508 kts | 25° |
| 2026-05-08 14:28 | -5.19762 | -142.61367 | 36902 ft | 508 kts | 25° |
| 2026-05-08 14:28 | -5.13443 | -142.58176 | 36900 ft | 508 kts | 25° |
| 2026-05-08 14:29 | -5.07175 | -142.55011 | 36903 ft | 507 kts | 25° |
| 2026-05-08 14:29 | -5.00881 | -142.51834 | 36901 ft | 505 kts | 25° |
| 2026-05-08 14:30 | -4.94600 | -142.48668 | 36895 ft | 505 kts | 25° |
| 2026-05-08 14:30 | -4.88310 | -142.45500 | 36898 ft | 507 kts | 25° |
| 2026-05-08 14:31 | -4.81994 | -142.42317 | 36900 ft | 508 kts | 25° |
| 2026-05-08 14:31 | -4.75672 | -142.39134 | 36905 ft | 509 kts | 25° |
| 2026-05-08 14:32 | -4.66191 | -142.34360 | 36904 ft | 507 kts | 25° |
| 2026-05-08 14:32 | -4.59890 | -142.31188 | 36901 ft | 506 kts | 25° |
| 2026-05-08 14:33 | -4.53640 | -142.28043 | 36893 ft | 505 kts | 25° |
| 2026-05-08 14:33 | -4.47355 | -142.24881 | 36889 ft | 505 kts | 25° |
| 2026-05-08 14:34 | -4.41059 | -142.21713 | 36893 ft | 507 kts | 25° |
| 2026-05-08 14:34 | -4.34744 | -142.18537 | 36898 ft | 508 kts | 25° |
| 2026-05-08 14:35 | -4.28412 | -142.15352 | 36901 ft | 509 kts | 24° |
| 2026-05-08 14:35 | -4.22129 | -142.12193 | 36900 ft | 507 kts | 24° |
| 2026-05-08 14:36 | -4.15818 | -142.09021 | 36894 ft | 506 kts | 24° |
| 2026-05-08 14:36 | -4.09527 | -142.05859 | 36891 ft | 505 kts | 24° |
| 2026-05-08 14:37 | -4.03250 | -142.02705 | 36887 ft | 505 kts | 24° |
| 2026-05-08 14:37 | -3.96965 | -141.99547 | 37113 ft | 506 kts | 24° |
| 2026-05-08 14:38 | -3.93817 | -141.97965 | 37333 ft | 505 kts | 24° |
| 2026-05-08 14:38 | -3.90677 | -141.96388 | 37551 ft | 504 kts | 24° |
| 2026-05-08 14:38 | -3.87538 | -141.94812 | 37764 ft | 503 kts | 24° |
| 2026-05-08 14:38 | -3.84452 | -141.93262 | 37966 ft | 502 kts | 24° |
| 2026-05-08 14:39 | -3.81332 | -141.91695 | 38165 ft | 502 kts | 24° |
| 2026-05-08 14:39 | -3.78208 | -141.90126 | 38364 ft | 501 kts | 24° |
| 2026-05-08 14:39 | -3.75094 | -141.88562 | 38555 ft | 500 kts | 24° |
| 2026-05-08 14:39 | -3.71984 | -141.87001 | 38736 ft | 499 kts | 24° |
| 2026-05-08 14:40 | -3.68880 | -141.85442 | 38897 ft | 499 kts | 24° |
| 2026-05-08 14:40 | -3.65760 | -141.83877 | 38880 ft | 501 kts | 24° |
| 2026-05-08 14:40 | -3.59550 | -141.80759 | 38881 ft | 497 kts | 24° |
| 2026-05-08 14:41 | -3.53417 | -141.77682 | 38885 ft | 495 kts | 24° |
| 2026-05-08 14:41 | -3.47260 | -141.74592 | 38883 ft | 494 kts | 24° |
| 2026-05-08 14:42 | -3.41112 | -141.71508 | 38878 ft | 494 kts | 24° |
| 2026-05-08 14:42 | -3.34957 | -141.68420 | 38883 ft | 494 kts | 24° |
| 2026-05-08 14:43 | -3.28796 | -141.65330 | 38881 ft | 495 kts | 24° |
| 2026-05-08 14:43 | -3.22646 | -141.62245 | 38885 ft | 493 kts | 24° |
| 2026-05-08 14:44 | -3.16517 | -141.59172 | 38886 ft | 492 kts | 24° |
| 2026-05-08 14:44 | -3.10425 | -141.56118 | 38886 ft | 494 kts | 24° |
| 2026-05-08 14:45 | -3.04273 | -141.53034 | 38888 ft | 495 kts | 24° |
| 2026-05-08 14:45 | -2.98096 | -141.49938 | 38899 ft | 496 kts | 24° |
| 2026-05-08 14:46 | -2.91941 | -141.46853 | 38892 ft | 493 kts | 24° |
| 2026-05-08 14:46 | -2.86840 | -141.44297 | 38888 ft | 492 kts | 24° |
| 2026-05-08 14:47 | -2.80715 | -141.41228 | 38885 ft | 492 kts | 24° |
| 2026-05-08 14:47 | -2.74590 | -141.38159 | 38890 ft | 492 kts | 24° |
| 2026-05-08 14:48 | -2.68452 | -141.35084 | 38891 ft | 493 kts | 24° |
| 2026-05-08 14:48 | -2.62320 | -141.32013 | 38889 ft | 493 kts | 24° |
| 2026-05-08 14:49 | -2.56219 | -141.28957 | 38891 ft | 494 kts | 24° |
| 2026-05-08 14:49 | -2.50071 | -141.25879 | 38899 ft | 494 kts | 24° |
| 2026-05-08 14:50 | -2.43917 | -141.22797 | 38897 ft | 495 kts | 24° |
| 2026-05-08 14:50 | -2.37758 | -141.19713 | 38898 ft | 495 kts | 24° |
| 2026-05-08 14:51 | -2.31594 | -141.16628 | 38900 ft | 495 kts | 24° |
| 2026-05-08 14:51 | -2.25429 | -141.13542 | 38899 ft | 495 kts | 24° |
| 2026-05-08 14:52 | -2.16240 | -141.08942 | 38897 ft | 493 kts | 24° |
| 2026-05-08 14:53 | -2.10116 | -141.05877 | 38894 ft | 491 kts | 24° |
| 2026-05-08 14:53 | -2.04003 | -141.02819 | 38887 ft | 492 kts | 24° |
| 2026-05-08 14:54 | -1.97871 | -140.99750 | 38888 ft | 493 kts | 24° |
| 2026-05-08 14:54 | -1.91721 | -140.96673 | 38892 ft | 494 kts | 24° |
| 2026-05-08 14:55 | -1.85567 | -140.93595 | 38895 ft | 495 kts | 24° |
| 2026-05-08 14:55 | -1.79407 | -140.90513 | 38898 ft | 494 kts | 24° |
| 2026-05-08 14:56 | -1.73262 | -140.87439 | 38897 ft | 493 kts | 24° |
| 2026-05-08 14:56 | -1.67119 | -140.84367 | 38895 ft | 493 kts | 24° |
| 2026-05-08 14:57 | -1.60980 | -140.81296 | 38893 ft | 493 kts | 24° |
| 2026-05-08 14:57 | -1.54883 | -140.78247 | 38894 ft | 493 kts | 24° |
| 2026-05-08 14:58 | -1.48736 | -140.75173 | 38893 ft | 493 kts | 24° |
| 2026-05-08 14:58 | -1.42600 | -140.72105 | 38892 ft | 492 kts | 24° |
| 2026-05-08 14:59 | -1.36480 | -140.69045 | 38889 ft | 491 kts | 24° |
| 2026-05-08 14:59 | -1.27344 | -140.64477 | 38890 ft | 492 kts | 24° |
| 2026-05-08 15:00 | -1.21211 | -140.61411 | 38895 ft | 493 kts | 24° |
| 2026-05-08 15:00 | -1.15070 | -140.58341 | 38898 ft | 494 kts | 24° |
| 2026-05-08 15:01 | -1.08929 | -140.55271 | 38899 ft | 493 kts | 24° |
| 2026-05-08 15:01 | -1.02798 | -140.52206 | 38899 ft | 492 kts | 24° |
| 2026-05-08 15:02 | -0.96667 | -140.49142 | 38898 ft | 492 kts | 24° |
| 2026-05-08 15:02 | -0.90592 | -140.46105 | 38900 ft | 491 kts | 24° |
| 2026-05-08 15:03 | -0.84476 | -140.43049 | 38900 ft | 491 kts | 24° |
| 2026-05-08 15:03 | -0.78362 | -140.39993 | 38898 ft | 491 kts | 24° |
| 2026-05-08 15:04 | -0.72232 | -140.36929 | 38895 ft | 493 kts | 24° |
| 2026-05-08 15:04 | -0.66086 | -140.33858 | 38899 ft | 494 kts | 24° |
| 2026-05-08 15:05 | -0.59928 | -140.30780 | 38904 ft | 494 kts | 24° |
| 2026-05-08 15:05 | -0.53788 | -140.27712 | 38905 ft | 492 kts | 25° |
| 2026-05-08 15:06 | -0.47683 | -140.24661 | 38903 ft | 490 kts | 25° |
| 2026-05-08 15:06 | -0.41582 | -140.21612 | 38901 ft | 491 kts | 25° |
| 2026-05-08 15:07 | -0.35508 | -140.18577 | 38905 ft | 491 kts | 25° |
| 2026-05-08 15:07 | -0.29389 | -140.15519 | 38905 ft | 492 kts | 25° |
| 2026-05-08 15:08 | -0.24255 | -140.12954 | 38902 ft | 492 kts | 25° |
| 2026-05-08 15:08 | -0.17142 | -140.09400 | 38903 ft | 491 kts | 25° |
| 2026-05-08 15:09 | -0.11030 | -140.06346 | 38900 ft | 491 kts | 25° |
| 2026-05-08 15:09 | -0.04915 | -140.03290 | 38899 ft | 490 kts | 25° |
| 2026-05-08 15:10 | 0.01146 | -140.00262 | 38901 ft | 490 kts | 25° |
| 2026-05-08 15:10 | 0.07228 | -139.97218 | 38901 ft | 487 kts | 25° |
| 2026-05-08 15:11 | 0.13307 | -139.94178 | 38902 ft | 490 kts | 25° |
| 2026-05-08 15:11 | 0.19422 | -139.91118 | 38907 ft | 492 kts | 25° |
| 2026-05-08 15:12 | 0.25552 | -139.88052 | 38909 ft | 492 kts | 25° |
| 2026-05-08 15:12 | 0.31673 | -139.84990 | 38907 ft | 492 kts | 25° |
| 2026-05-08 15:13 | 0.37794 | -139.81927 | 38908 ft | 492 kts | 25° |
| 2026-05-08 15:13 | 0.43914 | -139.78866 | 38910 ft | 492 kts | 25° |
| 2026-05-08 15:14 | 0.50035 | -139.75803 | 38907 ft | 492 kts | 25° |
| 2026-05-08 15:14 | 0.56125 | -139.72757 | 38910 ft | 492 kts | 25° |
| 2026-05-08 15:15 | 0.62255 | -139.69690 | 38904 ft | 491 kts | 25° |
| 2026-05-08 15:15 | 0.68339 | -139.66645 | 38903 ft | 488 kts | 25° |
| 2026-05-08 15:16 | 0.74416 | -139.63606 | 38906 ft | 489 kts | 25° |
| 2026-05-08 15:16 | 0.80503 | -139.60560 | 38906 ft | 490 kts | 25° |
| 2026-05-08 15:17 | 0.86604 | -139.57507 | 38908 ft | 490 kts | 25° |
| 2026-05-08 15:17 | 0.92691 | -139.54461 | 38908 ft | 485 kts | 25° |
| 2026-05-08 15:18 | 0.98701 | -139.51454 | 38900 ft | 483 kts | 25° |
| 2026-05-08 15:18 | 1.04751 | -139.48426 | 38903 ft | 488 kts | 25° |
| 2026-05-08 15:19 | 1.10786 | -139.45405 | 38908 ft | 488 kts | 25° |
| 2026-05-08 15:19 | 1.16865 | -139.42363 | 38906 ft | 488 kts | 25° |
| 2026-05-08 15:20 | 1.22910 | -139.39338 | 38903 ft | 483 kts | 25° |
| 2026-05-08 15:20 | 1.28924 | -139.36328 | 38900 ft | 483 kts | 25° |
| 2026-05-08 15:21 | 1.34938 | -139.33317 | 38902 ft | 483 kts | 25° |
| 2026-05-08 15:21 | 1.40928 | -139.30319 | 38903 ft | 484 kts | 25° |
| 2026-05-08 15:22 | 1.46958 | -139.27301 | 38900 ft | 486 kts | 26° |
| 2026-05-08 15:22 | 1.53044 | -139.24253 | 38910 ft | 491 kts | 26° |
| 2026-05-08 15:23 | 1.59149 | -139.21198 | 38914 ft | 490 kts | 26° |
| 2026-05-08 15:23 | 1.65253 | -139.18141 | 38913 ft | 490 kts | 26° |
| 2026-05-08 15:24 | 1.71338 | -139.15094 | 38910 ft | 489 kts | 26° |
| 2026-05-08 15:24 | 1.77420 | -139.12048 | 38908 ft | 487 kts | 26° |
| 2026-05-08 15:25 | 1.83470 | -139.09018 | 38909 ft | 486 kts | 26° |
| 2026-05-08 15:25 | 1.89516 | -139.05990 | 38908 ft | 486 kts | 26° |
| 2026-05-08 15:26 | 1.95527 | -139.02979 | 38909 ft | 486 kts | 26° |
| 2026-05-08 15:26 | 2.01578 | -138.99948 | 38909 ft | 486 kts | 26° |
| 2026-05-08 15:27 | 2.07608 | -138.96928 | 38903 ft | 483 kts | 26° |
| 2026-05-08 15:27 | 2.13623 | -138.93914 | 38901 ft | 483 kts | 26° |
| 2026-05-08 15:28 | 2.19605 | -138.90916 | 38908 ft | 484 kts | 26° |
| 2026-05-08 15:28 | 2.25647 | -138.87889 | 38911 ft | 485 kts | 26° |
| 2026-05-08 15:29 | 2.31690 | -138.84860 | 38920 ft | 485 kts | 26° |
| 2026-05-08 15:29 | 2.37693 | -138.81852 | 38910 ft | 479 kts | 26° |
| 2026-05-08 15:30 | 2.43645 | -138.78868 | 38908 ft | 479 kts | 26° |
| 2026-05-08 15:30 | 2.49570 | -138.75898 | 38906 ft | 479 kts | 26° |
| 2026-05-08 15:31 | 2.55535 | -138.72908 | 38907 ft | 480 kts | 26° |
| 2026-05-08 15:31 | 2.61502 | -138.69916 | 38909 ft | 478 kts | 26° |
| 2026-05-08 15:32 | 2.67436 | -138.66940 | 38909 ft | 477 kts | 26° |
| 2026-05-08 15:32 | 2.73368 | -138.63965 | 38910 ft | 477 kts | 26° |
| 2026-05-08 15:33 | 2.79332 | -138.60974 | 38915 ft | 480 kts | 26° |
| 2026-05-08 15:33 | 2.84310 | -138.58477 | 38922 ft | 482 kts | 26° |
| 2026-05-08 15:34 | 2.90293 | -138.55476 | 38914 ft | 479 kts | 27° |
| 2026-05-08 15:34 | 2.96229 | -138.52497 | 38911 ft | 476 kts | 27° |
| 2026-05-08 15:35 | 3.02162 | -138.49520 | 38914 ft | 476 kts | 27° |
| 2026-05-08 15:35 | 3.08050 | -138.46565 | 38913 ft | 476 kts | 27° |
| 2026-05-08 15:36 | 3.13986 | -138.43586 | 38906 ft | 476 kts | 27° |
| 2026-05-08 15:36 | 3.19922 | -138.40606 | 38911 ft | 479 kts | 27° |
| 2026-05-08 15:37 | 3.25896 | -138.37607 | 38917 ft | 481 kts | 27° |
| 2026-05-08 15:37 | 3.31870 | -138.34607 | 38918 ft | 480 kts | 27° |
| 2026-05-08 15:38 | 3.37797 | -138.31631 | 38918 ft | 478 kts | 27° |
| 2026-05-08 15:38 | 3.43741 | -138.28646 | 38913 ft | 478 kts | 27° |
| 2026-05-08 15:39 | 3.49709 | -138.25648 | 38919 ft | 481 kts | 27° |
| 2026-05-08 15:39 | 3.55649 | -138.22553 | 38922 ft | 481 kts | 29° |
| 2026-05-08 15:40 | 3.61585 | -138.19424 | 38920 ft | 483 kts | 28° |
| 2026-05-08 15:40 | 3.67546 | -138.16316 | 38923 ft | 483 kts | 28° |
| 2026-05-08 15:41 | 3.73453 | -138.13210 | 38923 ft | 481 kts | 28° |
| 2026-05-08 15:41 | 3.79377 | -138.10112 | 38919 ft | 479 kts | 28° |
| 2026-05-08 15:42 | 3.85279 | -138.07013 | 38915 ft | 479 kts | 28° |
| 2026-05-08 15:42 | 3.91199 | -138.03912 | 38922 ft | 480 kts | 28° |
| 2026-05-08 15:43 | 3.97119 | -138.00807 | 38923 ft | 481 kts | 28° |
| 2026-05-08 15:43 | 4.03045 | -137.97699 | 38924 ft | 480 kts | 28° |
| 2026-05-08 15:44 | 4.08968 | -137.94592 | 38931 ft | 480 kts | 28° |
| 2026-05-08 15:44 | 4.14876 | -137.91493 | 38926 ft | 479 kts | 28° |
| 2026-05-08 15:45 | 4.20749 | -137.88411 | 38920 ft | 478 kts | 28° |
| 2026-05-08 15:45 | 4.26655 | -137.85311 | 38926 ft | 479 kts | 28° |
| 2026-05-08 15:46 | 4.32540 | -137.82223 | 38925 ft | 476 kts | 28° |
| 2026-05-08 15:46 | 4.38410 | -137.79141 | 38925 ft | 476 kts | 28° |
| 2026-05-08 15:47 | 4.44290 | -137.76053 | 38925 ft | 476 kts | 28° |
| 2026-05-08 15:47 | 4.50128 | -137.72987 | 38928 ft | 476 kts | 28° |
| 2026-05-08 15:48 | 4.58994 | -137.68330 | 38927 ft | 484 kts | 27° |
| 2026-05-08 15:49 | 4.64968 | -137.65191 | 38930 ft | 485 kts | 27° |
| 2026-05-08 15:49 | 4.70939 | -137.62053 | 38928 ft | 484 kts | 27° |
| 2026-05-08 15:50 | 4.76898 | -137.58921 | 38925 ft | 483 kts | 27° |
| 2026-05-08 15:50 | 4.82804 | -137.55816 | 38923 ft | 482 kts | 27° |
| 2026-05-08 15:51 | 4.88768 | -137.52680 | 38926 ft | 484 kts | 27° |
| 2026-05-08 15:51 | 4.94736 | -137.49541 | 38928 ft | 484 kts | 27° |
| 2026-05-08 15:52 | 5.00700 | -137.46404 | 38929 ft | 484 kts | 27° |
| 2026-05-08 15:52 | 5.06680 | -137.43257 | 38939 ft | 484 kts | 27° |
| 2026-05-08 15:53 | 5.12646 | -137.40118 | 38940 ft | 484 kts | 27° |
| 2026-05-08 15:53 | 5.18576 | -137.36996 | 38941 ft | 484 kts | 28° |
| 2026-05-08 15:54 | 5.24537 | -137.33858 | 38934 ft | 483 kts | 28° |
| 2026-05-08 15:54 | 5.30483 | -137.30727 | 38934 ft | 482 kts | 28° |
| 2026-05-08 15:55 | 5.36420 | -137.27599 | 38935 ft | 482 kts | 28° |
| 2026-05-08 15:55 | 5.45337 | -137.22901 | 38933 ft | 482 kts | 28° |
| 2026-05-08 15:56 | 5.51286 | -137.19766 | 38941 ft | 483 kts | 28° |
| 2026-05-08 15:56 | 5.57201 | -137.16648 | 38941 ft | 482 kts | 28° |
| 2026-05-08 15:57 | 5.63142 | -137.13515 | 38932 ft | 484 kts | 29° |
| 2026-05-08 15:57 | 5.69136 | -137.10354 | 38930 ft | 487 kts | 29° |
| 2026-05-08 15:58 | 5.75137 | -137.07189 | 38933 ft | 486 kts | 29° |
| 2026-05-08 15:58 | 5.81138 | -137.04022 | 38934 ft | 486 kts | 29° |
| 2026-05-08 15:59 | 5.87100 | -137.00876 | 38937 ft | 487 kts | 29° |
| 2026-05-08 15:59 | 5.93090 | -136.97714 | 38937 ft | 487 kts | 29° |
| 2026-05-08 16:00 | 5.99083 | -136.94549 | 38937 ft | 485 kts | 28° |
| 2026-05-08 16:00 | 6.05060 | -136.91393 | 38935 ft | 484 kts | 28° |
| 2026-05-08 16:01 | 6.11022 | -136.88243 | 38933 ft | 484 kts | 28° |
| 2026-05-08 16:01 | 6.17017 | -136.85075 | 38929 ft | 490 kts | 28° |
| 2026-05-08 16:02 | 6.23026 | -136.81899 | 38940 ft | 492 kts | 28° |
| 2026-05-08 16:02 | 6.29069 | -136.78704 | 38941 ft | 490 kts | 28° |
| 2026-05-08 16:03 | 6.35110 | -136.75510 | 38938 ft | 489 kts | 28° |
| 2026-05-08 16:03 | 6.41135 | -136.72322 | 38932 ft | 489 kts | 28° |
| 2026-05-08 16:04 | 6.47174 | -136.69127 | 38935 ft | 490 kts | 28° |
| 2026-05-08 16:04 | 6.53212 | -136.65931 | 38936 ft | 490 kts | 28° |
| 2026-05-08 16:05 | 6.59242 | -136.62739 | 38936 ft | 489 kts | 28° |
| 2026-05-08 16:05 | 6.65268 | -136.59548 | 38937 ft | 490 kts | 28° |
| 2026-05-08 16:06 | 6.71344 | -136.56329 | 38943 ft | 495 kts | 28° |
| 2026-05-08 16:06 | 6.77404 | -136.53118 | 38946 ft | 494 kts | 28° |
| 2026-05-08 16:07 | 6.83483 | -136.49896 | 38947 ft | 494 kts | 28° |
| 2026-05-08 16:07 | 6.89565 | -136.46672 | 38945 ft | 494 kts | 28° |
| 2026-05-08 16:08 | 6.95677 | -136.43431 | 38941 ft | 499 kts | 28° |
| 2026-05-08 16:08 | 7.01822 | -136.40171 | 38943 ft | 499 kts | 28° |
| 2026-05-08 16:09 | 7.06928 | -136.37462 | 38941 ft | 499 kts | 28° |
| 2026-05-08 16:09 | 7.14100 | -136.33654 | 38940 ft | 498 kts | 28° |
| 2026-05-08 16:10 | 7.20200 | -136.30415 | 38947 ft | 500 kts | 28° |
| 2026-05-08 16:10 | 7.26350 | -136.27149 | 38943 ft | 500 kts | 28° |
| 2026-05-08 16:11 | 7.32514 | -136.23874 | 38945 ft | 500 kts | 28° |
| 2026-05-08 16:11 | 7.38668 | -136.20603 | 38945 ft | 500 kts | 28° |
| 2026-05-08 16:12 | 7.44824 | -136.17329 | 38945 ft | 498 kts | 27° |
| 2026-05-08 16:12 | 7.50958 | -136.14068 | 38946 ft | 498 kts | 27° |
| 2026-05-08 16:13 | 7.57093 | -136.10804 | 38944 ft | 498 kts | 27° |
| 2026-05-08 16:13 | 7.63233 | -136.07536 | 38943 ft | 499 kts | 27° |
| 2026-05-08 16:14 | 7.69369 | -136.04268 | 38945 ft | 499 kts | 27° |
| 2026-05-08 16:14 | 7.75472 | -136.01020 | 38942 ft | 499 kts | 27° |
| 2026-05-08 16:15 | 7.81611 | -135.97749 | 38947 ft | 499 kts | 27° |
| 2026-05-08 16:15 | 7.87761 | -135.94472 | 38947 ft | 499 kts | 27° |
| 2026-05-08 16:16 | 7.93897 | -135.91200 | 38944 ft | 499 kts | 26° |
| 2026-05-08 16:16 | 8.00025 | -135.87933 | 38944 ft | 498 kts | 26° |
| 2026-05-08 16:17 | 8.05121 | -135.85214 | 38948 ft | 498 kts | 26° |
| 2026-05-08 16:17 | 8.12265 | -135.81403 | 38947 ft | 499 kts | 26° |
| 2026-05-08 16:18 | 8.18401 | -135.78127 | 38941 ft | 499 kts | 26° |
| 2026-05-08 16:18 | 8.24528 | -135.74855 | 38940 ft | 497 kts | 26° |
| 2026-05-08 16:19 | 8.30648 | -135.71586 | 38945 ft | 497 kts | 26° |
| 2026-05-08 16:19 | 8.36728 | -135.68337 | 38946 ft | 498 kts | 26° |
| 2026-05-08 16:20 | 8.42852 | -135.65063 | 38943 ft | 498 kts | 26° |
| 2026-05-08 16:20 | 8.48987 | -135.61782 | 38942 ft | 498 kts | 26° |
| 2026-05-08 16:21 | 8.54075 | -135.59061 | 38945 ft | 497 kts | 26° |
| 2026-05-08 16:21 | 8.60204 | -135.55781 | 38942 ft | 498 kts | 26° |
| 2026-05-08 16:22 | 8.66341 | -135.52496 | 38944 ft | 499 kts | 26° |
| 2026-05-08 16:22 | 8.72491 | -135.49202 | 38945 ft | 500 kts | 26° |
| 2026-05-08 16:23 | 8.78633 | -135.45912 | 38947 ft | 499 kts | 26° |
| 2026-05-08 16:23 | 8.84766 | -135.42625 | 38946 ft | 499 kts | 26° |
| 2026-05-08 16:24 | 8.90873 | -135.39351 | 38952 ft | 499 kts | 26° |
| 2026-05-08 16:24 | 8.97005 | -135.36062 | 38943 ft | 498 kts | 26° |
| 2026-05-08 16:25 | 9.03136 | -135.32773 | 38946 ft | 498 kts | 26° |
| 2026-05-08 16:25 | 9.09256 | -135.29488 | 38945 ft | 498 kts | 26° |
| 2026-05-08 16:26 | 9.15372 | -135.26204 | 38948 ft | 498 kts | 26° |
| 2026-05-08 16:26 | 9.21484 | -135.22921 | 38948 ft | 496 kts | 26° |
| 2026-05-08 16:27 | 9.27583 | -135.19644 | 38950 ft | 496 kts | 26° |
| 2026-05-08 16:27 | 9.33679 | -135.16366 | 38946 ft | 496 kts | 26° |
| 2026-05-08 16:28 | 9.39777 | -135.13087 | 38952 ft | 496 kts | 26° |
| 2026-05-08 16:28 | 9.45868 | -135.09810 | 38955 ft | 494 kts | 25° |
| 2026-05-08 16:29 | 9.51906 | -135.06560 | 38954 ft | 495 kts | 26° |
| 2026-05-08 16:29 | 9.57983 | -135.03288 | 38960 ft | 495 kts | 26° |
| 2026-05-08 16:30 | 9.64060 | -135.00014 | 38960 ft | 494 kts | 25° |
| 2026-05-08 16:30 | 9.70137 | -134.96739 | 38957 ft | 494 kts | 25° |
| 2026-05-08 16:31 | 9.76204 | -134.93469 | 38955 ft | 494 kts | 25° |
| 2026-05-08 16:31 | 9.82269 | -134.90198 | 38957 ft | 494 kts | 25° |
| 2026-05-08 16:32 | 9.88353 | -134.86915 | 38960 ft | 496 kts | 25° |
| 2026-05-08 16:32 | 9.94446 | -134.83626 | 38957 ft | 496 kts | 26° |
| 2026-05-08 16:33 | 10.00541 | -134.80334 | 38957 ft | 496 kts | 26° |
| 2026-05-08 16:33 | 10.06592 | -134.77066 | 38957 ft | 495 kts | 26° |
| 2026-05-08 16:34 | 10.12680 | -134.73775 | 38958 ft | 495 kts | 26° |
| 2026-05-08 16:34 | 10.18754 | -134.70491 | 38955 ft | 494 kts | 26° |
| 2026-05-08 16:35 | 10.24796 | -134.67222 | 38956 ft | 495 kts | 26° |
| 2026-05-08 16:35 | 10.30886 | -134.63926 | 38960 ft | 496 kts | 25° |
| 2026-05-08 16:36 | 10.36972 | -134.60631 | 38965 ft | 496 kts | 25° |
| 2026-05-08 16:36 | 10.43056 | -134.57336 | 38964 ft | 495 kts | 25° |
| 2026-05-08 16:37 | 10.49137 | -134.54040 | 38959 ft | 494 kts | 25° |
| 2026-05-08 16:37 | 10.55209 | -134.50748 | 38961 ft | 494 kts | 26° |
| 2026-05-08 16:38 | 10.61236 | -134.47479 | 38964 ft | 495 kts | 26° |
| 2026-05-08 16:38 | 10.67329 | -134.44173 | 38967 ft | 496 kts | 26° |
| 2026-05-08 16:39 | 10.73429 | -134.40862 | 38967 ft | 497 kts | 26° |
| 2026-05-08 16:39 | 10.79527 | -134.37549 | 38938 ft | 496 kts | 25° |
| 2026-05-08 16:40 | 10.85606 | -134.34246 | 38957 ft | 494 kts | 25° |
| 2026-05-08 16:40 | 10.91662 | -134.30953 | 38957 ft | 493 kts | 25° |
| 2026-05-08 16:41 | 10.97689 | -134.27676 | 38960 ft | 494 kts | 25° |
| 2026-05-08 16:42 | 11.06806 | -134.22714 | 38957 ft | 496 kts | 25° |
| 2026-05-08 16:42 | 11.12899 | -134.19396 | 38963 ft | 497 kts | 25° |
| 2026-05-08 16:43 | 11.19008 | -134.16068 | 38969 ft | 497 kts | 25° |
| 2026-05-08 16:43 | 11.25098 | -134.12749 | 38969 ft | 496 kts | 25° |
| 2026-05-08 16:44 | 11.31181 | -134.09432 | 38963 ft | 495 kts | 25° |
| 2026-05-08 16:44 | 11.37246 | -134.06122 | 38961 ft | 494 kts | 25° |
| 2026-05-08 16:45 | 11.43254 | -134.02843 | 38967 ft | 494 kts | 25° |
| 2026-05-08 16:45 | 11.49331 | -133.99525 | 38968 ft | 495 kts | 24° |
| 2026-05-08 16:46 | 11.55410 | -133.96203 | 38969 ft | 496 kts | 24° |
| 2026-05-08 16:46 | 11.61502 | -133.92872 | 38977 ft | 497 kts | 25° |
| 2026-05-08 16:47 | 11.67590 | -133.89542 | 38986 ft | 497 kts | 24° |
| 2026-05-08 16:47 | 11.73640 | -133.86232 | 38979 ft | 495 kts | 24° |
| 2026-05-08 16:48 | 11.79700 | -133.82914 | 38979 ft | 493 kts | 24° |
| 2026-05-08 16:48 | 11.85747 | -133.79602 | 38978 ft | 494 kts | 24° |
| 2026-05-08 16:49 | 11.91814 | -133.76277 | 38978 ft | 495 kts | 24° |
| 2026-05-08 16:49 | 11.97895 | -133.72942 | 38988 ft | 496 kts | 24° |
| 2026-05-08 16:50 | 12.03981 | -133.69604 | 38987 ft | 495 kts | 24° |
| 2026-05-08 16:50 | 12.10047 | -133.66274 | 38984 ft | 493 kts | 24° |
| 2026-05-08 16:51 | 12.16080 | -133.62961 | 38984 ft | 492 kts | 24° |
| 2026-05-08 16:51 | 12.22118 | -133.59644 | 38985 ft | 493 kts | 24° |
| 2026-05-08 16:52 | 12.28122 | -133.56342 | 38990 ft | 493 kts | 24° |
| 2026-05-08 16:52 | 12.34152 | -133.53026 | 38991 ft | 492 kts | 24° |
| 2026-05-08 16:53 | 12.43218 | -133.48036 | 38993 ft | 494 kts | 24° |
| 2026-05-08 16:53 | 12.49280 | -133.44698 | 38995 ft | 495 kts | 24° |
| 2026-05-08 16:54 | 12.55353 | -133.41351 | 38995 ft | 496 kts | 24° |
| 2026-05-08 16:54 | 12.61446 | -133.37992 | 38997 ft | 498 kts | 24° |
| 2026-05-08 16:55 | 12.67555 | -133.34621 | 38992 ft | 498 kts | 24° |
| 2026-05-08 16:55 | 12.73659 | -133.31252 | 38991 ft | 497 kts | 24° |
| 2026-05-08 16:56 | 12.79697 | -133.27918 | 38989 ft | 496 kts | 24° |
| 2026-05-08 16:56 | 12.85765 | -133.24565 | 38990 ft | 495 kts | 24° |
| 2026-05-08 16:57 | 12.91842 | -133.21206 | 38992 ft | 498 kts | 23° |
| 2026-05-08 16:57 | 12.97955 | -133.17824 | 38998 ft | 499 kts | 23° |
| 2026-05-08 16:58 | 13.04066 | -133.14441 | 39003 ft | 499 kts | 23° |
| 2026-05-08 16:58 | 13.10191 | -133.11049 | 39003 ft | 499 kts | 23° |
| 2026-05-08 16:59 | 13.16305 | -133.07661 | 39015 ft | 499 kts | 24° |
| 2026-05-08 16:59 | 13.22402 | -133.04281 | 39003 ft | 502 kts | 24° |
| 2026-05-08 17:00 | 13.28543 | -133.00873 | 39005 ft | 501 kts | 23° |
| 2026-05-08 17:00 | 13.34665 | -132.97475 | 39000 ft | 498 kts | 23° |
| 2026-05-08 17:01 | 13.40754 | -132.94094 | 38996 ft | 497 kts | 23° |
| 2026-05-08 17:01 | 13.46854 | -132.90705 | 38996 ft | 498 kts | 23° |
| 2026-05-08 17:02 | 13.52962 | -132.87308 | 39009 ft | 500 kts | 23° |
| 2026-05-08 17:02 | 13.59079 | -132.83904 | 39008 ft | 500 kts | 23° |
| 2026-05-08 17:03 | 13.65146 | -132.80526 | 39011 ft | 499 kts | 23° |
| 2026-05-08 17:03 | 13.71244 | -132.77130 | 39013 ft | 498 kts | 23° |
| 2026-05-08 17:04 | 13.77336 | -132.73734 | 39019 ft | 498 kts | 23° |
| 2026-05-08 17:04 | 13.83471 | -132.70315 | 39018 ft | 502 kts | 23° |
| 2026-05-08 17:05 | 13.89616 | -132.66883 | 39019 ft | 502 kts | 23° |
| 2026-05-08 17:05 | 13.95761 | -132.63453 | 39023 ft | 502 kts | 23° |
| 2026-05-08 17:06 | 14.01913 | -132.60015 | 39017 ft | 502 kts | 22° |
| 2026-05-08 17:06 | 14.08011 | -132.56606 | 39018 ft | 502 kts | 22° |
| 2026-05-08 17:07 | 14.14150 | -132.53173 | 39026 ft | 502 kts | 22° |
| 2026-05-08 17:07 | 14.20284 | -132.49738 | 39022 ft | 502 kts | 22° |
| 2026-05-08 17:08 | 14.26428 | -132.46297 | 39020 ft | 502 kts | 22° |
| 2026-05-08 17:08 | 14.31526 | -132.43441 | 39020 ft | 502 kts | 22° |
| 2026-05-08 17:09 | 14.37660 | -132.40002 | 39022 ft | 503 kts | 22° |
| 2026-05-08 17:09 | 14.43862 | -132.36523 | 39022 ft | 511 kts | 23° |
| 2026-05-08 17:10 | 14.50108 | -132.33013 | 39033 ft | 511 kts | 23° |
| 2026-05-08 17:10 | 14.56358 | -132.29503 | 39028 ft | 510 kts | 23° |
| 2026-05-08 17:11 | 14.62588 | -132.25998 | 39026 ft | 510 kts | 23° |
| 2026-05-08 17:11 | 14.68828 | -132.22488 | 39017 ft | 512 kts | 22° |
| 2026-05-08 17:12 | 14.75129 | -132.18941 | 39025 ft | 518 kts | 22° |
| 2026-05-08 17:12 | 14.81459 | -132.15372 | 39029 ft | 518 kts | 22° |
| 2026-05-08 17:13 | 14.87794 | -132.11802 | 39033 ft | 518 kts | 22° |
| 2026-05-08 17:13 | 14.94087 | -132.08250 | 39030 ft | 517 kts | 22° |
| 2026-05-08 17:14 | 15.00399 | -132.04686 | 39028 ft | 517 kts | 22° |
| 2026-05-08 17:14 | 15.06710 | -132.01121 | 39026 ft | 517 kts | 22° |
| 2026-05-08 17:15 | 15.13014 | -131.97557 | 39033 ft | 516 kts | 22° |
| 2026-05-08 17:15 | 15.19328 | -131.93985 | 39031 ft | 516 kts | 22° |
| 2026-05-08 17:16 | 15.25642 | -131.90410 | 39038 ft | 517 kts | 22° |
| 2026-05-08 17:16 | 15.31903 | -131.86863 | 39039 ft | 516 kts | 22° |
| 2026-05-08 17:17 | 15.38204 | -131.83291 | 39038 ft | 515 kts | 22° |
| 2026-05-08 17:17 | 15.44501 | -131.79719 | 39038 ft | 515 kts | 22° |
| 2026-05-08 17:18 | 15.50791 | -131.76148 | 39047 ft | 515 kts | 21° |
| 2026-05-08 17:18 | 15.57027 | -131.72605 | 39062 ft | 514 kts | 21° |
| 2026-05-08 17:19 | 15.63292 | -131.69043 | 39047 ft | 512 kts | 21° |
| 2026-05-08 17:19 | 15.69551 | -131.65483 | 39052 ft | 514 kts | 21° |
| 2026-05-08 17:20 | 15.75825 | -131.61911 | 39053 ft | 515 kts | 21° |
| 2026-05-08 17:20 | 15.82115 | -131.58328 | 39056 ft | 516 kts | 21° |
| 2026-05-08 17:21 | 15.88414 | -131.54735 | 39058 ft | 516 kts | 21° |
| 2026-05-08 17:21 | 15.94688 | -131.51156 | 39054 ft | 513 kts | 21° |
| 2026-05-08 17:22 | 16.00960 | -131.47577 | 39052 ft | 513 kts | 21° |
| 2026-05-08 17:22 | 16.07189 | -131.44017 | 39052 ft | 514 kts | 21° |
| 2026-05-08 17:23 | 16.13456 | -131.40434 | 39055 ft | 514 kts | 21° |
| 2026-05-08 17:23 | 16.19728 | -131.36845 | 39058 ft | 515 kts | 21° |
| 2026-05-08 17:24 | 16.26021 | -131.33242 | 39061 ft | 516 kts | 21° |
| 2026-05-08 17:24 | 16.32314 | -131.29634 | 39061 ft | 514 kts | 21° |
| 2026-05-08 17:25 | 16.38532 | -131.26069 | 39060 ft | 513 kts | 21° |
| 2026-05-08 17:25 | 16.44781 | -131.22484 | 39060 ft | 513 kts | 21° |
| 2026-05-08 17:26 | 16.51047 | -131.18886 | 39062 ft | 514 kts | 21° |
| 2026-05-08 17:26 | 16.57332 | -131.15273 | 39065 ft | 516 kts | 21° |
| 2026-05-08 17:27 | 16.63594 | -131.11672 | 39070 ft | 516 kts | 21° |
| 2026-05-08 17:27 | 16.69878 | -131.08053 | 39070 ft | 515 kts | 21° |
| 2026-05-08 17:28 | 16.76146 | -131.04444 | 39067 ft | 514 kts | 21° |
| 2026-05-08 17:28 | 16.82392 | -131.00843 | 39063 ft | 513 kts | 21° |
| 2026-05-08 17:29 | 16.88637 | -130.97241 | 39060 ft | 513 kts | 21° |
| 2026-05-08 17:29 | 16.94894 | -130.93629 | 39061 ft | 514 kts | 21° |
| 2026-05-08 17:30 | 17.01139 | -130.90020 | 39072 ft | 516 kts | 21° |
| 2026-05-08 17:30 | 17.07409 | -130.86393 | 39076 ft | 514 kts | 21° |
| 2026-05-08 17:31 | 17.13662 | -130.82776 | 39070 ft | 512 kts | 21° |
| 2026-05-08 17:31 | 17.19877 | -130.79176 | 39070 ft | 511 kts | 21° |
| 2026-05-08 17:32 | 17.26102 | -130.75570 | 39066 ft | 511 kts | 21° |
| 2026-05-08 17:32 | 17.32320 | -130.71962 | 39068 ft | 511 kts | 21° |
| 2026-05-08 17:33 | 17.38544 | -130.68349 | 39070 ft | 511 kts | 21° |
| 2026-05-08 17:33 | 17.44755 | -130.64739 | 39077 ft | 508 kts | 21° |
| 2026-05-08 17:34 | 17.50879 | -130.61180 | 39075 ft | 506 kts | 21° |
| 2026-05-08 17:34 | 17.57055 | -130.57589 | 39076 ft | 508 kts | 21° |
| 2026-05-08 17:35 | 17.63250 | -130.53980 | 39081 ft | 509 kts | 21° |
| 2026-05-08 17:35 | 17.69456 | -130.50364 | 39084 ft | 510 kts | 21° |
| 2026-05-08 17:36 | 17.75635 | -130.46759 | 39081 ft | 504 kts | 23° |
| 2026-05-08 17:36 | 17.81758 | -130.43186 | 39072 ft | 503 kts | 23° |
| 2026-05-08 17:37 | 17.87898 | -130.39600 | 39077 ft | 505 kts | 23° |
| 2026-05-08 17:37 | 17.93997 | -130.36032 | 39079 ft | 505 kts | 23° |
| 2026-05-08 17:38 | 18.00132 | -130.32444 | 39073 ft | 504 kts | 23° |
| 2026-05-08 17:38 | 18.06263 | -130.28855 | 39081 ft | 507 kts | 23° |
| 2026-05-08 17:39 | 18.12464 | -130.25221 | 39089 ft | 512 kts | 23° |
| 2026-05-08 17:39 | 18.18708 | -130.21558 | 39088 ft | 514 kts | 22° |
| 2026-05-08 17:40 | 18.24921 | -130.17910 | 39092 ft | 513 kts | 22° |
| 2026-05-08 17:40 | 18.31154 | -130.14248 | 39094 ft | 512 kts | 22° |
| 2026-05-08 17:41 | 18.37374 | -130.10590 | 39091 ft | 511 kts | 22° |
| 2026-05-08 17:41 | 18.43566 | -130.06948 | 39088 ft | 510 kts | 22° |
| 2026-05-08 17:42 | 18.49772 | -130.03293 | 39088 ft | 511 kts | 22° |
| 2026-05-08 17:42 | 18.55979 | -129.99634 | 39095 ft | 511 kts | 22° |
| 2026-05-08 17:43 | 18.62183 | -129.95974 | 39098 ft | 511 kts | 22° |
| 2026-05-08 17:43 | 18.68386 | -129.92312 | 39095 ft | 511 kts | 22° |
| 2026-05-08 17:44 | 18.74594 | -129.88643 | 39097 ft | 511 kts | 22° |
| 2026-05-08 17:44 | 18.80761 | -129.84996 | 39102 ft | 512 kts | 22° |
| 2026-05-08 17:45 | 18.86971 | -129.81320 | 39101 ft | 512 kts | 22° |
| 2026-05-08 17:45 | 18.93193 | -129.77633 | 39105 ft | 512 kts | 22° |
| 2026-05-08 17:46 | 18.99403 | -129.73949 | 39103 ft | 509 kts | 21° |
| 2026-05-08 17:46 | 19.05562 | -129.70296 | 39104 ft | 507 kts | 21° |
| 2026-05-08 17:47 | 19.11726 | -129.66635 | 39109 ft | 508 kts | 21° |
| 2026-05-08 17:47 | 19.16854 | -129.63586 | 39109 ft | 509 kts | 21° |
| 2026-05-08 17:48 | 19.24078 | -129.59288 | 39115 ft | 510 kts | 21° |
| 2026-05-08 17:48 | 19.30258 | -129.55608 | 39110 ft | 508 kts | 22° |
| 2026-05-08 17:49 | 19.36397 | -129.51947 | 39104 ft | 506 kts | 22° |
| 2026-05-08 17:49 | 19.42490 | -129.48314 | 39103 ft | 506 kts | 22° |
| 2026-05-08 17:50 | 19.48618 | -129.44654 | 39102 ft | 506 kts | 22° |
| 2026-05-08 17:50 | 19.54758 | -129.40985 | 39106 ft | 506 kts | 22° |
| 2026-05-08 17:51 | 19.60891 | -129.37317 | 39106 ft | 506 kts | 22° |
| 2026-05-08 17:51 | 19.67025 | -129.33645 | 39118 ft | 506 kts | 22° |
| 2026-05-08 17:52 | 19.73131 | -129.29986 | 39120 ft | 507 kts | 22° |
| 2026-05-08 17:53 | 19.82356 | -129.24452 | 39123 ft | 508 kts | 22° |
| 2026-05-08 17:53 | 19.88516 | -129.20753 | 39133 ft | 509 kts | 22° |
| 2026-05-08 17:54 | 19.94683 | -129.17045 | 39131 ft | 509 kts | 22° |
| 2026-05-08 17:54 | 20.00842 | -129.13340 | 39130 ft | 508 kts | 22° |
| 2026-05-08 17:55 | 20.05943 | -129.10268 | 39131 ft | 506 kts | 22° |
| 2026-05-08 17:55 | 20.12066 | -129.06579 | 39126 ft | 505 kts | 22° |
| 2026-05-08 17:56 | 20.18183 | -129.02889 | 39133 ft | 505 kts | 22° |
| 2026-05-08 17:56 | 20.24289 | -128.99201 | 39130 ft | 502 kts | 21° |
| 2026-05-08 17:57 | 20.30368 | -128.95531 | 39132 ft | 502 kts | 21° |
| 2026-05-08 17:57 | 20.36455 | -128.91848 | 39132 ft | 504 kts | 21° |
| 2026-05-08 17:58 | 20.42522 | -128.88175 | 39139 ft | 504 kts | 21° |
| 2026-05-08 17:58 | 20.48590 | -128.84496 | 39140 ft | 500 kts | 21° |
| 2026-05-08 17:59 | 20.54634 | -128.80833 | 39144 ft | 497 kts | 22° |
| 2026-05-08 17:59 | 20.60651 | -128.77179 | 39143 ft | 497 kts | 22° |
| 2026-05-08 18:00 | 20.66665 | -128.73527 | 39144 ft | 498 kts | 22° |
| 2026-05-08 18:00 | 20.75672 | -128.68048 | 39151 ft | 499 kts | 22° |
| 2026-05-08 18:01 | 20.81722 | -128.64363 | 39161 ft | 500 kts | 22° |
| 2026-05-08 18:01 | 20.87738 | -128.60693 | 39145 ft | 494 kts | 22° |
| 2026-05-08 18:02 | 20.93709 | -128.57053 | 39142 ft | 494 kts | 22° |
| 2026-05-08 18:02 | 20.99636 | -128.53432 | 39142 ft | 494 kts | 22° |
| 2026-05-08 18:03 | 21.05658 | -128.49752 | 39147 ft | 495 kts | 22° |
| 2026-05-08 18:03 | 21.11637 | -128.46093 | 39147 ft | 495 kts | 22° |
| 2026-05-08 18:04 | 21.17579 | -128.42455 | 39160 ft | 494 kts | 23° |
| 2026-05-08 18:04 | 21.23545 | -128.38796 | 39157 ft | 493 kts | 23° |
| 2026-05-08 18:05 | 21.29509 | -128.35139 | 39161 ft | 494 kts | 23° |
| 2026-05-08 18:05 | 21.35467 | -128.31478 | 39160 ft | 493 kts | 23° |
| 2026-05-08 18:06 | 21.41427 | -128.27816 | 39161 ft | 494 kts | 23° |
| 2026-05-08 18:06 | 21.47343 | -128.24175 | 39169 ft | 493 kts | 24° |
| 2026-05-08 18:07 | 21.53299 | -128.20507 | 39174 ft | 494 kts | 24° |
| 2026-05-08 18:07 | 21.59271 | -128.16824 | 39168 ft | 493 kts | 24° |
| 2026-05-08 18:08 | 21.65220 | -128.13154 | 39168 ft | 493 kts | 24° |
| 2026-05-08 18:08 | 21.71174 | -128.09477 | 39169 ft | 494 kts | 24° |
| 2026-05-08 18:09 | 21.77135 | -128.05791 | 39171 ft | 494 kts | 24° |
| 2026-05-08 18:09 | 21.83069 | -128.02118 | 39167 ft | 491 kts | 24° |
| 2026-05-08 18:10 | 21.88989 | -127.98433 | 39176 ft | 492 kts | 24° |
| 2026-05-08 18:10 | 21.94911 | -127.94740 | 39180 ft | 492 kts | 24° |
| 2026-05-08 18:11 | 22.00819 | -127.91056 | 39177 ft | 490 kts | 24° |
| 2026-05-08 18:11 | 22.06678 | -127.87397 | 39182 ft | 489 kts | 25° |
| 2026-05-08 18:12 | 22.12557 | -127.83721 | 39174 ft | 487 kts | 25° |
| 2026-05-08 18:12 | 22.18427 | -127.80050 | 39174 ft | 488 kts | 25° |
| 2026-05-08 18:13 | 22.24312 | -127.76364 | 39192 ft | 491 kts | 25° |
| 2026-05-08 18:13 | 22.27272 | -127.74509 | 39377 ft | 491 kts | 25° |
| 2026-05-08 18:13 | 22.30222 | -127.72658 | 39546 ft | 490 kts | 25° |
| 2026-05-08 18:14 | 22.33176 | -127.70806 | 39720 ft | 490 kts | 25° |
| 2026-05-08 18:14 | 22.36115 | -127.68961 | 39943 ft | 488 kts | 25° |
| 2026-05-08 18:14 | 22.39050 | -127.67118 | 40171 ft | 486 kts | 25° |
| 2026-05-08 18:14 | 22.41930 | -127.65308 | 40396 ft | 484 kts | 25° |
| 2026-05-08 18:15 | 22.44839 | -127.63479 | 40529 ft | 484 kts | 25° |
| 2026-05-08 18:15 | 22.47757 | -127.61645 | 40675 ft | 484 kts | 25° |
| 2026-05-08 18:15 | 22.50664 | -127.59816 | 40819 ft | 483 kts | 25° |
| 2026-05-08 18:15 | 22.53569 | -127.57986 | 40995 ft | 482 kts | 25° |
| 2026-05-08 18:16 | 22.56460 | -127.56165 | 41180 ft | 481 kts | 25° |
| 2026-05-08 18:16 | 22.59365 | -127.54336 | 41173 ft | 484 kts | 25° |
| 2026-05-08 18:16 | 22.65179 | -127.50667 | 41178 ft | 480 kts | 25° |
| 2026-05-08 18:17 | 22.70935 | -127.47035 | 41173 ft | 477 kts | 25° |
| 2026-05-08 18:17 | 22.76671 | -127.43412 | 41178 ft | 477 kts | 25° |
| 2026-05-08 18:18 | 22.82408 | -127.39783 | 41175 ft | 478 kts | 25° |
| 2026-05-08 18:18 | 22.88159 | -127.36142 | 41178 ft | 479 kts | 25° |
| 2026-05-08 18:19 | 22.93875 | -127.32520 | 41183 ft | 479 kts | 25° |
| 2026-05-08 18:19 | 22.99627 | -127.28870 | 41188 ft | 478 kts | 25° |
| 2026-05-08 18:20 | 23.05349 | -127.25236 | 41185 ft | 475 kts | 25° |
| 2026-05-08 18:20 | 23.11061 | -127.21607 | 41189 ft | 475 kts | 25° |
| 2026-05-08 18:21 | 23.16771 | -127.17974 | 41201 ft | 476 kts | 25° |
| 2026-05-08 18:21 | 23.22508 | -127.14321 | 41202 ft | 477 kts | 25° |
| 2026-05-08 18:22 | 23.28204 | -127.10689 | 41196 ft | 478 kts | 25° |
| 2026-05-08 18:22 | 23.33936 | -127.07030 | 41196 ft | 476 kts | 25° |
| 2026-05-08 18:23 | 23.39624 | -127.03397 | 41196 ft | 473 kts | 25° |
| 2026-05-08 18:23 | 23.45302 | -126.99767 | 41192 ft | 473 kts | 25° |
| 2026-05-08 18:24 | 23.50978 | -126.96133 | 41203 ft | 473 kts | 25° |
| 2026-05-08 18:24 | 23.56651 | -126.92499 | 41199 ft | 473 kts | 25° |
| 2026-05-08 18:25 | 23.62325 | -126.88859 | 41209 ft | 473 kts | 25° |
| 2026-05-08 18:25 | 23.67958 | -126.85241 | 41198 ft | 471 kts | 26° |
| 2026-05-08 18:26 | 23.73606 | -126.81613 | 41197 ft | 471 kts | 26° |
| 2026-05-08 18:26 | 23.79248 | -126.77982 | 41200 ft | 471 kts | 26° |
| 2026-05-08 18:27 | 23.83937 | -126.74963 | 41204 ft | 471 kts | 26° |
| 2026-05-08 18:27 | 23.90531 | -126.70712 | 41205 ft | 470 kts | 26° |
| 2026-05-08 18:28 | 23.96153 | -126.67085 | 41203 ft | 467 kts | 26° |
| 2026-05-08 18:28 | 24.01730 | -126.63482 | 41200 ft | 465 kts | 26° |
| 2026-05-08 18:29 | 24.07274 | -126.59898 | 41201 ft | 466 kts | 26° |
| 2026-05-08 18:29 | 24.12861 | -126.56280 | 41206 ft | 465 kts | 26° |
| 2026-05-08 18:30 | 24.18434 | -126.52670 | 41202 ft | 466 kts | 26° |
| 2026-05-08 18:30 | 24.24014 | -126.49051 | 41211 ft | 467 kts | 26° |
| 2026-05-08 18:31 | 24.29591 | -126.45428 | 41210 ft | 463 kts | 26° |
| 2026-05-08 18:31 | 24.35139 | -126.41824 | 41209 ft | 463 kts | 26° |
| 2026-05-08 18:32 | 24.40647 | -126.38240 | 41213 ft | 464 kts | 26° |
| 2026-05-08 18:32 | 24.46207 | -126.34619 | 41214 ft | 464 kts | 26° |
| 2026-05-08 18:33 | 24.51755 | -126.31002 | 41212 ft | 464 kts | 26° |
| 2026-05-08 18:33 | 24.57302 | -126.27382 | 41211 ft | 463 kts | 27° |
| 2026-05-08 18:34 | 24.62802 | -126.23786 | 41219 ft | 459 kts | 27° |
| 2026-05-08 18:34 | 24.68286 | -126.20202 | 41216 ft | 458 kts | 27° |
| 2026-05-08 18:35 | 24.73759 | -126.16618 | 41214 ft | 459 kts | 27° |
| 2026-05-08 18:35 | 24.79259 | -126.13013 | 41212 ft | 459 kts | 27° |
| 2026-05-08 18:36 | 24.84718 | -126.09432 | 41220 ft | 459 kts | 27° |
| 2026-05-08 18:36 | 24.90203 | -126.05830 | 41216 ft | 457 kts | 28° |
| 2026-05-08 18:37 | 24.95657 | -126.02244 | 41215 ft | 456 kts | 27° |
| 2026-05-08 18:37 | 25.01107 | -125.98658 | 41213 ft | 457 kts | 28° |
| 2026-05-08 18:38 | 25.06579 | -125.95053 | 41218 ft | 458 kts | 28° |
| 2026-05-08 18:38 | 25.12050 | -125.91445 | 41225 ft | 458 kts | 28° |
| 2026-05-08 18:39 | 25.17514 | -125.87837 | 41230 ft | 456 kts | 28° |
| 2026-05-08 18:39 | 25.22941 | -125.84250 | 41222 ft | 452 kts | 28° |
| 2026-05-08 18:40 | 25.28309 | -125.80700 | 41215 ft | 453 kts | 28° |
| 2026-05-08 18:40 | 25.33730 | -125.77110 | 41215 ft | 454 kts | 28° |
| 2026-05-08 18:41 | 25.38237 | -125.74122 | 41214 ft | 455 kts | 28° |
| 2026-05-08 18:41 | 25.43687 | -125.70506 | 41221 ft | 456 kts | 28° |
| 2026-05-08 18:42 | 25.49127 | -125.66892 | 41226 ft | 456 kts | 28° |
| 2026-05-08 18:42 | 25.54545 | -125.63288 | 41218 ft | 452 kts | 28° |
| 2026-05-08 18:43 | 25.59929 | -125.59705 | 41211 ft | 451 kts | 28° |
| 2026-05-08 18:43 | 25.65316 | -125.56116 | 41213 ft | 451 kts | 28° |
| 2026-05-08 18:44 | 25.70657 | -125.52552 | 41213 ft | 451 kts | 28° |
| 2026-05-08 18:44 | 25.76044 | -125.48956 | 41229 ft | 452 kts | 28° |
| 2026-05-08 18:45 | 25.81438 | -125.45350 | 41228 ft | 454 kts | 28° |
| 2026-05-08 18:45 | 25.86856 | -125.41724 | 41229 ft | 455 kts | 28° |
| 2026-05-08 18:46 | 25.92275 | -125.38092 | 41227 ft | 454 kts | 28° |
| 2026-05-08 18:46 | 25.97675 | -125.34471 | 41224 ft | 452 kts | 29° |
| 2026-05-08 18:47 | 26.03052 | -125.30860 | 41222 ft | 451 kts | 29° |
| 2026-05-08 18:47 | 26.08388 | -125.27274 | 41219 ft | 451 kts | 29° |
| 2026-05-08 18:48 | 26.13767 | -125.23655 | 41221 ft | 451 kts | 29° |
| 2026-05-08 18:48 | 26.19150 | -125.20029 | 41226 ft | 453 kts | 29° |
| 2026-05-08 18:49 | 26.24554 | -125.16384 | 41233 ft | 454 kts | 29° |
| 2026-05-08 18:49 | 26.29964 | -125.12733 | 41232 ft | 454 kts | 29° |
| 2026-05-08 18:50 | 26.35363 | -125.09084 | 41233 ft | 454 kts | 29° |
| 2026-05-08 18:50 | 26.40766 | -125.05428 | 41231 ft | 454 kts | 29° |
| 2026-05-08 18:51 | 26.46148 | -125.01782 | 41230 ft | 450 kts | 29° |
| 2026-05-08 18:51 | 26.51463 | -124.98179 | 41225 ft | 450 kts | 29° |
| 2026-05-08 18:52 | 26.56820 | -124.94542 | 41228 ft | 451 kts | 29° |
| 2026-05-08 18:52 | 26.62207 | -124.90881 | 41232 ft | 453 kts | 29° |
| 2026-05-08 18:53 | 26.67601 | -124.87212 | 41232 ft | 453 kts | 29° |
| 2026-05-08 18:53 | 26.72974 | -124.83552 | 41233 ft | 451 kts | 29° |
| 2026-05-08 18:54 | 26.78322 | -124.79905 | 41232 ft | 448 kts | 29° |
| 2026-05-08 18:54 | 26.83609 | -124.76296 | 41225 ft | 448 kts | 29° |
| 2026-05-08 18:55 | 26.91616 | -124.70823 | 41226 ft | 451 kts | 29° |
| 2026-05-08 18:56 | 26.96995 | -124.67142 | 41239 ft | 453 kts | 29° |
| 2026-05-08 18:56 | 27.02376 | -124.63453 | 41235 ft | 453 kts | 29° |
| 2026-05-08 18:57 | 27.07744 | -124.59771 | 41234 ft | 449 kts | 30° |
| 2026-05-08 18:57 | 27.13069 | -124.56113 | 41230 ft | 448 kts | 30° |
| 2026-05-08 18:58 | 27.18381 | -124.52461 | 41218 ft | 448 kts | 30° |
| 2026-05-08 18:58 | 27.23703 | -124.48797 | 41222 ft | 448 kts | 30° |
| 2026-05-08 18:59 | 27.29024 | -124.45130 | 41234 ft | 450 kts | 30° |
| 2026-05-08 18:59 | 27.34344 | -124.41460 | 41229 ft | 453 kts | 30° |
| 2026-05-08 19:00 | 27.39704 | -124.37756 | 41230 ft | 449 kts | 30° |
| 2026-05-08 19:00 | 27.45010 | -124.34087 | 41226 ft | 447 kts | 30° |
| 2026-05-08 19:01 | 27.50319 | -124.30411 | 41223 ft | 448 kts | 30° |
| 2026-05-08 19:01 | 27.55635 | -124.26727 | 41230 ft | 449 kts | 30° |
| 2026-05-08 19:02 | 27.60964 | -124.23029 | 41229 ft | 450 kts | 30° |
| 2026-05-08 19:02 | 27.66312 | -124.19313 | 41228 ft | 452 kts | 30° |
| 2026-05-08 19:03 | 27.71630 | -124.15613 | 41225 ft | 447 kts | 30° |
| 2026-05-08 19:03 | 27.76883 | -124.11956 | 41222 ft | 446 kts | 30° |
| 2026-05-08 19:04 | 27.82168 | -124.08272 | 41219 ft | 447 kts | 30° |
| 2026-05-08 19:04 | 27.87473 | -124.04569 | 41223 ft | 449 kts | 30° |
| 2026-05-08 19:05 | 27.92807 | -124.00841 | 41226 ft | 450 kts | 30° |
| 2026-05-08 19:05 | 27.98121 | -123.97123 | 41223 ft | 447 kts | 30° |
| 2026-05-08 19:06 | 28.03374 | -123.93444 | 41226 ft | 445 kts | 30° |
| 2026-05-08 19:06 | 28.08635 | -123.89756 | 41229 ft | 449 kts | 30° |
| 2026-05-08 19:07 | 28.13949 | -123.86024 | 41230 ft | 449 kts | 30° |
| 2026-05-08 19:07 | 28.19263 | -123.82289 | 41230 ft | 449 kts | 30° |
| 2026-05-08 19:08 | 28.24575 | -123.78550 | 41228 ft | 449 kts | 30° |
| 2026-05-08 19:08 | 28.29867 | -123.74821 | 41223 ft | 446 kts | 30° |
| 2026-05-08 19:09 | 28.35121 | -123.71116 | 41218 ft | 444 kts | 30° |
| 2026-05-08 19:09 | 28.40367 | -123.67411 | 41209 ft | 445 kts | 30° |
| 2026-05-08 19:10 | 28.45643 | -123.63681 | 41222 ft | 448 kts | 30° |
| 2026-05-08 19:10 | 28.50906 | -123.59954 | 41223 ft | 447 kts | 30° |
| 2026-05-08 19:11 | 28.56184 | -123.56214 | 41222 ft | 446 kts | 30° |
| 2026-05-08 19:11 | 28.61433 | -123.52489 | 41222 ft | 443 kts | 30° |
| 2026-05-08 19:12 | 28.66669 | -123.48770 | 41222 ft | 443 kts | 30° |
| 2026-05-08 19:12 | 28.71909 | -123.45042 | 41222 ft | 445 kts | 30° |
| 2026-05-08 19:13 | 28.77162 | -123.41301 | 41220 ft | 446 kts | 30° |
| 2026-05-08 19:13 | 28.82380 | -123.37580 | 41220 ft | 444 kts | 30° |
| 2026-05-08 19:14 | 28.87606 | -123.33850 | 41199 ft | 442 kts | 30° |
| 2026-05-08 19:14 | 28.92831 | -123.30116 | 41201 ft | 444 kts | 30° |
| 2026-05-08 19:15 | 28.98076 | -123.26362 | 41209 ft | 446 kts | 30° |
| 2026-05-08 19:15 | 29.03328 | -123.22599 | 41210 ft | 444 kts | 30° |
| 2026-05-08 19:16 | 29.08561 | -123.18846 | 41211 ft | 444 kts | 30° |
| 2026-05-08 19:16 | 29.13799 | -123.15084 | 41209 ft | 444 kts | 30° |
| 2026-05-08 19:17 | 29.19011 | -123.11336 | 41209 ft | 447 kts | 30° |
| 2026-05-08 19:17 | 29.24265 | -123.07553 | 41206 ft | 445 kts | 30° |
| 2026-05-08 19:18 | 29.29492 | -123.03786 | 41202 ft | 443 kts | 30° |
| 2026-05-08 19:18 | 29.34722 | -123.00011 | 41207 ft | 444 kts | 30° |
| 2026-05-08 19:19 | 29.39951 | -122.96232 | 41206 ft | 444 kts | 30° |
| 2026-05-08 19:19 | 29.45172 | -122.92454 | 41203 ft | 443 kts | 30° |
| 2026-05-08 19:20 | 29.50390 | -122.88675 | 41227 ft | 444 kts | 30° |
| 2026-05-08 19:20 | 29.55617 | -122.84884 | 41209 ft | 444 kts | 30° |
| 2026-05-08 19:21 | 29.60811 | -122.81112 | 41202 ft | 445 kts | 30° |
| 2026-05-08 19:21 | 29.66041 | -122.77309 | 41202 ft | 445 kts | 30° |
| 2026-05-08 19:22 | 29.71282 | -122.73494 | 41204 ft | 445 kts | 30° |
| 2026-05-08 19:22 | 29.76520 | -122.69676 | 41206 ft | 446 kts | 30° |
| 2026-05-08 19:23 | 29.81763 | -122.65850 | 41200 ft | 445 kts | 30° |
| 2026-05-08 19:23 | 29.86973 | -122.62042 | 41202 ft | 443 kts | 30° |
| 2026-05-08 19:24 | 29.92150 | -122.58255 | 41196 ft | 445 kts | 30° |
| 2026-05-08 19:24 | 29.97388 | -122.54418 | 41199 ft | 446 kts | 30° |
| 2026-05-08 19:25 | 30.02643 | -122.50587 | 41197 ft | 447 kts | 29° |
| 2026-05-08 19:25 | 30.07940 | -122.46844 | 41199 ft | 445 kts | 30° |
| 2026-05-08 19:26 | 30.13178 | -122.43075 | 41195 ft | 442 kts | 30° |
| 2026-05-08 19:26 | 30.18408 | -122.39338 | 41189 ft | 442 kts | 30° |
| 2026-05-08 19:27 | 30.23636 | -122.35584 | 41188 ft | 443 kts | 30° |
| 2026-05-08 19:27 | 30.28883 | -122.31817 | 41200 ft | 445 kts | 30° |
| 2026-05-08 19:28 | 30.33270 | -122.28662 | 41199 ft | 447 kts | 30° |
| 2026-05-08 19:28 | 30.38546 | -122.24863 | 41192 ft | 445 kts | 30° |
| 2026-05-08 19:29 | 30.44641 | -122.20470 | 41182 ft | 442 kts | 30° |
| 2026-05-08 19:29 | 30.49016 | -122.17312 | 41176 ft | 442 kts | 30° |
| 2026-05-08 19:30 | 30.54207 | -122.13560 | 41177 ft | 443 kts | 30° |
| 2026-05-08 19:30 | 30.59449 | -122.09767 | 41181 ft | 444 kts | 30° |
| 2026-05-08 19:31 | 30.64702 | -122.05961 | 41187 ft | 446 kts | 30° |
| 2026-05-08 19:31 | 30.69983 | -122.02129 | 41187 ft | 448 kts | 30° |
| 2026-05-08 19:32 | 30.75244 | -121.98307 | 41183 ft | 443 kts | 30° |
| 2026-05-08 19:32 | 30.80467 | -121.94508 | 41174 ft | 443 kts | 30° |
| 2026-05-08 19:33 | 30.85661 | -121.90725 | 41173 ft | 443 kts | 30° |
| 2026-05-08 19:33 | 30.90887 | -121.86914 | 41173 ft | 443 kts | 30° |
| 2026-05-08 19:34 | 30.96112 | -121.83098 | 41168 ft | 443 kts | 30° |
| 2026-05-08 19:34 | 31.01335 | -121.79279 | 41181 ft | 443 kts | 30° |
| 2026-05-08 19:35 | 31.06579 | -121.75440 | 41182 ft | 446 kts | 30° |
| 2026-05-08 19:35 | 31.11846 | -121.71579 | 41181 ft | 448 kts | 30° |
| 2026-05-08 19:36 | 31.17116 | -121.67710 | 41179 ft | 446 kts | 30° |
| 2026-05-08 19:36 | 31.22365 | -121.63851 | 41177 ft | 445 kts | 30° |
| 2026-05-08 19:37 | 31.27566 | -121.60023 | 41171 ft | 444 kts | 30° |
| 2026-05-08 19:37 | 31.32793 | -121.56170 | 41166 ft | 442 kts | 30° |
| 2026-05-08 19:38 | 31.38004 | -121.52325 | 41161 ft | 443 kts | 30° |
| 2026-05-08 19:38 | 31.43240 | -121.48456 | 41169 ft | 447 kts | 31° |
| 2026-05-08 19:39 | 31.48514 | -121.44553 | 41172 ft | 448 kts | 31° |
| 2026-05-08 19:39 | 31.53556 | -121.40295 | 41173 ft | 449 kts | 43° |
| 2026-05-08 19:40 | 31.57321 | -121.34414 | 41184 ft | 457 kts | 60° |
| 2026-05-08 19:40 | 31.59819 | -121.27514 | 41166 ft | 460 kts | 64° |
| 2026-05-08 19:41 | 31.62229 | -121.20547 | 41162 ft | 462 kts | 64° |
| 2026-05-08 19:41 | 31.64637 | -121.13583 | 41158 ft | 463 kts | 64° |
| 2026-05-08 19:42 | 31.67044 | -121.06607 | 41154 ft | 460 kts | 64° |
| 2026-05-08 19:42 | 31.69438 | -120.99655 | 41151 ft | 459 kts | 64° |
| 2026-05-08 19:43 | 31.71829 | -120.92700 | 41149 ft | 460 kts | 65° |
| 2026-05-08 19:43 | 31.74208 | -120.85760 | 41153 ft | 463 kts | 65° |
| 2026-05-08 19:44 | 31.76615 | -120.78726 | 41151 ft | 464 kts | 65° |
| 2026-05-08 19:44 | 31.79016 | -120.71694 | 41150 ft | 463 kts | 65° |
| 2026-05-08 19:45 | 31.81411 | -120.64665 | 41150 ft | 463 kts | 65° |
| 2026-05-08 19:45 | 31.83800 | -120.57638 | 41147 ft | 463 kts | 65° |
| 2026-05-08 19:46 | 31.86189 | -120.50596 | 41145 ft | 462 kts | 65° |
| 2026-05-08 19:46 | 31.89753 | -120.40064 | 41144 ft | 462 kts | 65° |
| 2026-05-08 19:47 | 31.92141 | -120.32990 | 41138 ft | 466 kts | 65° |
| 2026-05-08 19:47 | 31.94955 | -120.26225 | 41142 ft | 462 kts | 51° |
| 2026-05-08 19:48 | 31.99189 | -120.20573 | 41138 ft | 461 kts | 45° |
| 2026-05-08 19:48 | 32.03563 | -120.15062 | 41136 ft | 460 kts | 45° |
| 2026-05-08 19:49 | 32.07937 | -120.09538 | 41130 ft | 460 kts | 45° |
| 2026-05-08 19:49 | 32.12317 | -120.03998 | 41126 ft | 463 kts | 45° |
| 2026-05-08 19:50 | 32.16717 | -119.98425 | 41121 ft | 463 kts | 45° |
| 2026-05-08 19:50 | 32.21099 | -119.92866 | 41121 ft | 462 kts | 45° |
| 2026-05-08 19:51 | 32.25468 | -119.87316 | 41115 ft | 460 kts | 45° |
| 2026-05-08 19:51 | 32.29800 | -119.81804 | 41117 ft | 460 kts | 45° |
| 2026-05-08 19:52 | 32.34178 | -119.76225 | 41120 ft | 464 kts | 45° |
| 2026-05-08 19:52 | 32.38572 | -119.70618 | 41111 ft | 465 kts | 45° |
| 2026-05-08 19:53 | 32.42971 | -119.64995 | 41109 ft | 463 kts | 45° |
| 2026-05-08 19:53 | 32.45141 | -119.62217 | 40554 ft | 461 kts | 45° |
| 2026-05-08 19:53 | 32.47320 | -119.59427 | 39822 ft | 463 kts | 45° |
| 2026-05-08 19:54 | 32.49512 | -119.56618 | 39242 ft | 462 kts | 45° |
| 2026-05-08 19:54 | 32.51687 | -119.53827 | 38643 ft | 461 kts | 45° |
| 2026-05-08 19:54 | 32.53856 | -119.51043 | 38015 ft | 458 kts | 45° |
| 2026-05-08 19:54 | 32.56022 | -119.48259 | 37400 ft | 457 kts | 45° |
| 2026-05-08 19:55 | 32.58148 | -119.45528 | 36797 ft | 458 kts | 45° |
| 2026-05-08 19:55 | 32.60323 | -119.42731 | 36142 ft | 463 kts | 46° |
| 2026-05-08 19:55 | 32.62522 | -119.39899 | 35469 ft | 468 kts | 45° |
| 2026-05-08 19:55 | 32.64734 | -119.37048 | 34789 ft | 471 kts | 45° |
| 2026-05-08 19:56 | 32.66961 | -119.34175 | 34054 ft | 473 kts | 46° |
| 2026-05-08 19:56 | 32.69190 | -119.31299 | 33269 ft | 474 kts | 46° |
| 2026-05-08 19:56 | 32.71431 | -119.28406 | 32514 ft | 475 kts | 46° |
| 2026-05-08 19:56 | 32.73679 | -119.25499 | 31687 ft | 479 kts | 46° |
| 2026-05-08 19:57 | 32.75946 | -119.22566 | 30845 ft | 484 kts | 47° |
| 2026-05-08 19:57 | 32.78235 | -119.19602 | 29922 ft | 490 kts | 47° |
| 2026-05-08 19:57 | 32.80540 | -119.16613 | 29007 ft | 488 kts | 47° |
| 2026-05-08 19:57 | 32.82823 | -119.13653 | 28119 ft | 484 kts | 47° |
| 2026-05-08 19:58 | 32.85055 | -119.10756 | 27257 ft | 480 kts | 47° |
| 2026-05-08 19:58 | 32.87301 | -119.07839 | 26402 ft | 476 kts | 47° |
| 2026-05-08 19:58 | 32.89530 | -119.04941 | 25555 ft | 472 kts | 47° |
| 2026-05-08 19:58 | 32.91668 | -119.02154 | 24742 ft | 445 kts | 47° |
| 2026-05-08 19:59 | 32.93791 | -118.99392 | 23940 ft | 456 kts | 47° |
| 2026-05-08 19:59 | 32.95930 | -118.96609 | 23085 ft | 453 kts | 47° |
| 2026-05-08 19:59 | 32.98046 | -118.93847 | 22280 ft | 448 kts | 47° |
| 2026-05-08 19:59 | 33.00132 | -118.91124 | 21494 ft | 442 kts | 47° |
| 2026-05-08 20:00 | 33.02198 | -118.88426 | 20723 ft | 438 kts | 47° |
| 2026-05-08 20:00 | 33.04238 | -118.85762 | 19962 ft | 433 kts | 47° |
| 2026-05-08 20:00 | 33.06256 | -118.83121 | 19194 ft | 429 kts | 47° |
| 2026-05-08 20:00 | 33.08254 | -118.80505 | 18445 ft | 425 kts | 47° |
| 2026-05-08 20:01 | 33.10206 | -118.77948 | 17676 ft | 419 kts | 47° |
| 2026-05-08 20:01 | 33.12149 | -118.75401 | 16897 ft | 402 kts | 47° |
| 2026-05-08 20:01 | 33.13929 | -118.73066 | 16538 ft | 357 kts | 48° |
| 2026-05-08 20:01 | 33.15573 | -118.70908 | 16433 ft | 351 kts | 48° |
| 2026-05-08 20:02 | 33.17228 | -118.68735 | 16328 ft | 356 kts | 48° |
| 2026-05-08 20:02 | 33.18870 | -118.66505 | 16030 ft | 357 kts | 53° |
| 2026-05-08 20:02 | 33.20419 | -118.64225 | 15992 ft | 350 kts | 48° |
| 2026-05-08 20:02 | 33.22071 | -118.62055 | 15995 ft | 356 kts | 48° |
| 2026-05-08 20:03 | 33.23699 | -118.59830 | 15996 ft | 356 kts | 50° |
| 2026-05-08 20:03 | 33.25289 | -118.57547 | 15998 ft | 357 kts | 50° |
| 2026-05-08 20:03 | 33.26886 | -118.55269 | 16010 ft | 359 kts | 50° |
| 2026-05-08 20:03 | 33.28513 | -118.52997 | 16011 ft | 359 kts | 49° |
| 2026-05-08 20:04 | 33.30208 | -118.50924 | 15999 ft | 346 kts | 39° |
| 2026-05-08 20:04 | 33.32139 | -118.49166 | 15818 ft | 354 kts | 35° |
| 2026-05-08 20:04 | 33.34168 | -118.47481 | 15694 ft | 355 kts | 35° |
| 2026-05-08 20:04 | 33.36134 | -118.45697 | 15529 ft | 353 kts | 39° |
| 2026-05-08 20:05 | 33.38033 | -118.43826 | 14812 ft | 354 kts | 39° |
| 2026-05-08 20:05 | 33.39934 | -118.41979 | 14270 ft | 351 kts | 38° |
| 2026-05-08 20:05 | 33.41850 | -118.40188 | 13687 ft | 348 kts | 38° |
| 2026-05-08 20:05 | 33.43752 | -118.38410 | 13048 ft | 345 kts | 38° |
| 2026-05-08 20:06 | 33.45630 | -118.36626 | 12545 ft | 340 kts | 38° |
| 2026-05-08 20:06 | 33.47461 | -118.34882 | 12113 ft | 336 kts | 38° |
| 2026-05-08 20:06 | 33.49302 | -118.33135 | 11668 ft | 338 kts | 38° |
| 2026-05-08 20:06 | 33.51152 | -118.31383 | 11241 ft | 338 kts | 38° |
| 2026-05-08 20:07 | 33.52947 | -118.29679 | 10902 ft | 313 kts | 38° |
| 2026-05-08 20:07 | 33.54550 | -118.28155 | 10752 ft | 276 kts | 38° |
| 2026-05-08 20:07 | 33.55960 | -118.26815 | 10658 ft | 244 kts | 38° |
| 2026-05-08 20:07 | 33.57309 | -118.25533 | 10589 ft | 253 kts | 38° |
| 2026-05-08 20:08 | 33.58693 | -118.24217 | 10347 ft | 250 kts | 39° |
| 2026-05-08 20:08 | 33.60056 | -118.22920 | 10099 ft | 251 kts | 39° |
| 2026-05-08 20:08 | 33.61425 | -118.21615 | 9852 ft | 253 kts | 39° |
| 2026-05-08 20:08 | 33.62795 | -118.20310 | 9584 ft | 246 kts | 38° |
| 2026-05-08 20:09 | 33.64137 | -118.19030 | 9322 ft | 249 kts | 38° |
| 2026-05-08 20:09 | 33.65481 | -118.17750 | 9072 ft | 249 kts | 38° |
| 2026-05-08 20:09 | 33.66820 | -118.16472 | 8817 ft | 246 kts | 37° |
| 2026-05-08 20:09 | 33.68174 | -118.15183 | 8565 ft | 247 kts | 37° |
| 2026-05-08 20:10 | 33.69498 | -118.13917 | 8309 ft | 243 kts | 37° |
| 2026-05-08 20:10 | 33.70828 | -118.12649 | 8075 ft | 245 kts | 37° |
| 2026-05-08 20:10 | 33.72162 | -118.11375 | 7830 ft | 244 kts | 36° |
| 2026-05-08 20:10 | 33.73491 | -118.10104 | 7579 ft | 241 kts | 36° |
| 2026-05-08 20:11 | 33.74791 | -118.08861 | 7372 ft | 238 kts | 36° |
| 2026-05-08 20:11 | 33.76098 | -118.07613 | 7234 ft | 241 kts | 36° |
| 2026-05-08 20:11 | 33.77447 | -118.06423 | 7108 ft | 240 kts | 25° |
| 2026-05-08 20:11 | 33.79027 | -118.06027 | 6865 ft | 228 kts | 355° |
| 2026-05-08 20:12 | 33.80541 | -118.06519 | 6567 ft | 227 kts | 336° |
| 2026-05-08 20:12 | 33.82000 | -118.07220 | 6286 ft | 224 kts | 335° |
| 2026-05-08 20:12 | 33.83418 | -118.07913 | 6016 ft | 223 kts | 335° |
| 2026-05-08 20:12 | 33.84855 | -118.08607 | 5752 ft | 222 kts | 336° |
| 2026-05-08 20:13 | 33.86294 | -118.09296 | 5484 ft | 222 kts | 336° |
| 2026-05-08 20:13 | 33.87729 | -118.09983 | 5206 ft | 221 kts | 336° |
| 2026-05-08 20:13 | 33.89149 | -118.10631 | 4973 ft | 214 kts | 342° |
| 2026-05-08 20:13 | 33.90582 | -118.10747 | 4919 ft | 198 kts | 356° |
| 2026-05-08 20:14 | 33.91942 | -118.10844 | 4754 ft | 195 kts | 353° |
| 2026-05-08 20:14 | 33.93212 | -118.11262 | 4472 ft | 187 kts | 326° |
| 2026-05-08 20:14 | 33.94221 | -118.12210 | 4271 ft | 182 kts | 321° |
| 2026-05-08 20:14 | 33.95225 | -118.13157 | 4068 ft | 184 kts | 319° |
| 2026-05-08 20:15 | 33.95823 | -118.14458 | 3856 ft | 181 kts | 281° |
| 2026-05-08 20:15 | 33.95949 | -118.15973 | 3691 ft | 183 kts | 275° |
| 2026-05-08 20:15 | 33.95836 | -118.17514 | 3454 ft | 186 kts | 265° |
| 2026-05-08 20:15 | 33.95692 | -118.19062 | 3223 ft | 185 kts | 265° |
| 2026-05-08 20:16 | 33.95539 | -118.20597 | 2978 ft | 186 kts | 264° |
| 2026-05-08 20:16 | 33.95435 | -118.21621 | 2820 ft | 186 kts | 264° |
| 2026-05-08 20:16 | 33.95279 | -118.23155 | 2576 ft | 183 kts | 263° |
| 2026-05-08 20:16 | 33.95131 | -118.24624 | 2343 ft | 168 kts | 263° |
| 2026-05-08 20:17 | 33.94996 | -118.25970 | 2128 ft | 160 kts | 262° |
| 2026-05-08 20:17 | 33.94860 | -118.27287 | 1916 ft | 157 kts | 261° |
| 2026-05-08 20:17 | 33.94723 | -118.28604 | 1715 ft | 160 kts | 261° |
| 2026-05-08 20:17 | 33.94587 | -118.29913 | 1509 ft | 156 kts | 260° |
| 2026-05-08 20:18 | 33.94440 | -118.31196 | 1301 ft | 157 kts | 260° |
| 2026-05-08 20:18 | 33.94306 | -118.32491 | 1114 ft | 155 kts | 262° |
| 2026-05-08 20:18 | 33.94180 | -118.33802 | 907 ft | 156 kts | 263° |
| 2026-05-08 20:18 | 33.94056 | -118.35106 | 664 ft | 157 kts | 264° |
| 2026-05-08 20:19 | 33.93932 | -118.36403 | 457 ft | 153 kts | 262° |
| 2026-05-08 20:19 | 33.93803 | -118.37656 | 249 ft | 152 kts | 263° |
| 2026-05-08 20:19 | 33.93673 | -118.38923 | 137 ft | 143 kts | 262° |
| 2026-05-08 20:19 | 33.93574 | -118.39863 | 123 ft | 78 kts | 263° |
| 2026-05-08 20:20 | 33.93580 | -118.40230 | 126 ft | 22 kts | 294° |
| 2026-05-08 20:20 | 33.93624 | -118.40400 | 127 ft | 18 kts | 276° |
| 2026-05-08 20:20 | 33.93616 | -118.40539 | 130 ft | 17 kts | 263° |
| 2026-05-08 20:20 | 33.93602 | -118.40676 | 130 ft | 16 kts | 263° |
| 2026-05-08 20:21 | 33.93589 | -118.40809 | 131 ft | 16 kts | 263° |
| 2026-05-08 20:21 | 33.93575 | -118.40942 | 128 ft | 16 kts | 263° |
| 2026-05-08 20:21 | 33.93561 | -118.41072 | 130 ft | 16 kts | 263° |
| 2026-05-08 20:21 | 33.93563 | -118.41206 | 129 ft | 16 kts | 286° |
| 2026-05-08 20:22 | 33.93627 | -118.41265 | 128 ft | 12 kts | 353° |
| 2026-05-08 20:22 | 33.93722 | -118.41276 | 127 ft | 15 kts | 1° |
| 2026-05-08 20:22 | 33.93808 | -118.41254 | 128 ft | 12 kts | 354° |
| 2026-05-08 20:22 | 33.93903 | -118.41267 | 128 ft | 15 kts | 353° |
| 2026-05-08 20:23 | 33.94015 | -118.41284 | 128 ft | 18 kts | 353° |
| 2026-05-08 20:23 | 33.94141 | -118.41303 | 127 ft | 19 kts | 353° |
| 2026-05-08 20:23 | 33.94202 | -118.41312 | 128 ft | 6 kts | 353° |
| 2026-05-08 20:23 | 33.94248 | -118.41319 | 128 ft | 8 kts | 352° |
| 2026-05-08 20:24 | 33.94277 | -118.41354 | 128 ft | 7 kts | 285° |
| 2026-05-08 20:24 | 33.94275 | -118.41422 | 128 ft | 0 kts | 263° |